Observation data for Lake McClellan 2NW on 06/26/2019      Previous  Date  Next       Current Mesonet Observations  Soil Data  Daily Summary Page  Observations in Plain Language
KMC5 260500Z 23011KT 24/10 A3001 RMK A01 T02390101  RH  042%=      5-min Rain = 0
KMC5 260501Z 23010KT 24/11 A3001 RMK A01 T02380105  RH  043%=      5-min Rain = 0
KMC5 260502Z 23008KT 24/11 A3001 RMK A01 T02350107  RH  044%=      5-min Rain = 0
KMC5 260503Z 23008KT 23/11 A3001 RMK A01 T02320107  RH  045%=      5-min Rain = 0
KMC5 260504Z 23009KT 23/11 A3001 RMK A01 T02290108  RH  046%=      5-min Rain = 0
KMC5 260505Z 23010KT 23/11 A3001 RMK A01 T02280108  RH  047%=      5-min Rain = 0
KMC5 260506Z 22011KT 23/11 A3001 RMK A01 T02270107  RH  047%=      5-min Rain = 0
KMC5 260507Z 21013KT 23/10 A3001 RMK A01 T02280103  RH  045%=      5-min Rain = 0
KMC5 260508Z 21015KT 23/10 A3001 RMK A01 T02300102  RH  044%=      5-min Rain = 0
KMC5 260509Z 21014G19KT 23/10 A30 RMK A01 T02320101  RH  043%=      5-min Rain = 0
KMC5 260510Z 20016KT 23/10 A30 RMK A01 T02340099  RH  042%=      5-min Rain = 0
KMC5 260511Z 20017KT 24/10 A30 RMK A01 T02370097  RH  041%=      5-min Rain = 0
KMC5 260512Z 20017KT 24/10 A30 RMK A01 T02390097  RH  040%=      5-min Rain = 0
KMC5 260513Z 20018KT 24/10 A30 RMK A01 T02400096  RH  040%=      5-min Rain = 0
KMC5 260514Z 21015KT 24/10 A30 RMK A01 T02400097  RH  040%=      5-min Rain = 0
KMC5 260515Z 20014KT 24/10 A30 RMK A01 T02390097  RH  041%=      5-min Rain = 0
KMC5 260516Z 20018KT 24/10 A30 RMK A01 T02390097  RH  041%=      5-min Rain = 0
KMC5 260517Z 20015KT 24/10 A30 RMK A01 T02390097  RH  040%=      5-min Rain = 0
KMC5 260518Z 20016KT 24/10 A30 RMK A01 T02390099  RH  041%=      5-min Rain = 0
KMC5 260519Z 21014KT 24/10 A30 RMK A01 T02370100  RH  042%=      5-min Rain = 0
KMC5 260520Z 20013KT 24/10 A30 RMK A01 T02360100  RH  042%=      5-min Rain = 0
KMC5 260521Z 20014KT 23/10 A30 RMK A01 T02340100  RH  043%=      5-min Rain = 0
KMC5 260522Z 20014KT 23/10 A30 RMK A01 T02340101  RH  043%=      5-min Rain = 0
KMC5 260523Z 19014KT 23/10 A2999 RMK A01 T02340100  RH  043%=      5-min Rain = 0
KMC5 260524Z 19013KT 23/10 A2999 RMK A01 T02340101  RH  043%=      5-min Rain = 0
KMC5 260525Z 19015KT 23/10 A2999 RMK A01 T02330099  RH  043%=      5-min Rain = 0
KMC5 260526Z 19015KT 23/10 A2999 RMK A01 T02340098  RH  042%=      5-min Rain = 0
KMC5 260527Z 19013KT 24/10 A2999 RMK A01 T02360098  RH  042%=      5-min Rain = 0
KMC5 260528Z 19014KT 24/10 A2999 RMK A01 T02360099  RH  042%=      5-min Rain = 0
KMC5 260529Z 19014KT 24/10 A2999 RMK A01 T02350099  RH  042%=      5-min Rain = 0
KMC5 260530Z 19014KT 24/10 A2999 RMK A01 T02350098  RH  042%=      5-min Rain = 0
KMC5 260531Z 19013KT 24/10 A2999 RMK A01 T02350099  RH  042%=      5-min Rain = 0
KMC5 260532Z 19014KT 24/10 A2999 RMK A01 T02350100  RH  043%=      5-min Rain = 0
KMC5 260533Z 20011KT 23/10 A2999 RMK A01 T02330101  RH  043%=      5-min Rain = 0
KMC5 260534Z 21010KT 23/10 A2999 RMK A01 T02320102  RH  044%=      5-min Rain = 0
KMC5 260535Z 21009KT 23/10 A2999 RMK A01 T02310102  RH  044%=      5-min Rain = 0
KMC5 260536Z 22008KT 23/10 A2999 RMK A01 T02300103  RH  045%=      5-min Rain = 0
KMC5 260537Z 22007KT 23/10 A2999 RMK A01 T02280104  RH  045%=      5-min Rain = 0
KMC5 260538Z 22007KT 23/11 A2999 RMK A01 T02260105  RH  046%=      5-min Rain = 0
KMC5 260539Z 22008KT 22/10 A2999 RMK A01 T02240104  RH  046%=      5-min Rain = 0
KMC5 260540Z 22009KT 22/10 A2999 RMK A01 T02240102  RH  046%=      5-min Rain = 0
KMC5 260541Z 23008KT 22/10 A2999 RMK A01 T02240103  RH  046%=      5-min Rain = 0
KMC5 260542Z 23010KT 23/11 A2999 RMK A01 T02250105  RH  047%=      5-min Rain = 0
KMC5 260543Z 24011KT 22/10 A2999 RMK A01 T02240103  RH  046%=      5-min Rain = 0
KMC5 260544Z 24012KT 23/10 A2999 RMK A01 T02250102  RH  046%=      5-min Rain = 0
KMC5 260545Z 24011KT 23/10 A2999 RMK A01 T02270100  RH  044%=      5-min Rain = 0
KMC5 260546Z 24012KT 23/10 A2999 RMK A01 T02280100  RH  044%=      5-min Rain = 0
KMC5 260547Z 23013KT 23/10 A2999 RMK A01 T02290099  RH  044%=      5-min Rain = 0
KMC5 260548Z 23011KT 23/10 A2999 RMK A01 T02300100  RH  044%=      5-min Rain = 0
KMC5 260549Z 23012KT 23/10 A2999 RMK A01 T02290101  RH  044%=      5-min Rain = 0
KMC5 260550Z 23011KT 23/10 A2999 RMK A01 T02280100  RH  044%=      5-min Rain = 0
KMC5 260551Z 23012KT 23/10 A2999 RMK A01 T02280100  RH  044%=      5-min Rain = 0
KMC5 260552Z 23012KT 23/10 A2999 RMK A01 T02280099  RH  044%=      5-min Rain = 0
KMC5 260553Z 23011KT 23/10 A30 RMK A01 T02290099  RH  044%=      5-min Rain = 0
KMC5 260554Z 23013KT 23/10 A30 RMK A01 T02290100  RH  044%=      5-min Rain = 0
KMC5 260555Z 24011KT 23/10 A30 RMK A01 T02280099  RH  044%=      5-min Rain = 0
KMC5 260556Z 23012KT 23/10 A30 RMK A01 T02290097  RH  043%=      5-min Rain = 0
KMC5 260557Z 23011KT 23/10 A30 RMK A01 T02300097  RH  043%=      5-min Rain = 0
KMC5 260558Z 23013KT 23/10 A30 RMK A01 T02310096  RH  042%=      5-min Rain = 0
KMC5 260559Z 23012KT 23/10 A30 RMK A01 T02320098  RH  043%=      5-min Rain = 0
KMC5 260600Z 23013KT 23/10 A30 RMK A01 T02310099  RH  043%=      5-min Rain = 0
KMC5 260601Z 23012KT 23/10 A30 RMK A01 T02300098  RH  043%=      5-min Rain = 0
KMC5 260602Z 23013KT 23/10 A30 RMK A01 T02300098  RH  043%=      5-min Rain = 0
KMC5 260603Z 23012KT 23/10 A30 RMK A01 T02300099  RH  043%=      5-min Rain = 0
KMC5 260604Z 23013KT 23/10 A3001 RMK A01 T02290100  RH  044%=      5-min Rain = 0
KMC5 260605Z 22012KT 23/10 A3001 RMK A01 T02280100  RH  044%=      5-min Rain = 0
KMC5 260606Z 22013KT 23/10 A3001 RMK A01 T02270100  RH  044%=      5-min Rain = 0
KMC5 260607Z 22012KT 23/10 A3001 RMK A01 T02270099  RH  044%=      5-min Rain = 0
KMC5 260608Z 23013KT 23/10 A3001 RMK A01 T02270101  RH  045%=      5-min Rain = 0
KMC5 260609Z 22014G19KT 23/10 A3001 RMK A01 T02270099  RH  044%=      5-min Rain = 0
KMC5 260610Z 22013KT 23/10 A3001 RMK A01 T02280099  RH  044%=      5-min Rain = 0
KMC5 260611Z 22013KT 23/10 A3001 RMK A01 T02280101  RH  044%=      5-min Rain = 0
KMC5 260612Z 21017KT 23/10 A3001 RMK A01 T02270100  RH  044%=      5-min Rain = 0
KMC5 260613Z 22016KT 23/10 A3001 RMK A01 T02280098  RH  044%=      5-min Rain = 0
KMC5 260614Z 23017KT 23/10 A3001 RMK A01 T02290100  RH  044%=      5-min Rain = 0
KMC5 260615Z 23016KT 23/10 A3002 RMK A01 T02280101  RH  044%=      5-min Rain = 0
KMC5 260616Z 23015KT 23/10 A3002 RMK A01 T02270101  RH  045%=      5-min Rain = 0
KMC5 260617Z 22014KT 23/10 A3002 RMK A01 T02260101  RH  045%=      5-min Rain = 0
KMC5 260618Z 23013KT 23/10 A3002 RMK A01 T02250100  RH  045%=      5-min Rain = 0
KMC5 260619Z 23013KT 23/10 A3002 RMK A01 T02260101  RH  045%=      5-min Rain = 0
KMC5 260620Z 22013KT 23/10 A3002 RMK A01 T02250102  RH  046%=      5-min Rain = 0
KMC5 260621Z 23015KT 22/10 A3002 RMK A01 T02240101  RH  046%=      5-min Rain = 0
KMC5 260622Z 23015KT 22/10 A3002 RMK A01 T02240100  RH  045%=      5-min Rain = 0
KMC5 260623Z 23016KT 22/10 A3002 RMK A01 T02240102  RH  046%=      5-min Rain = 0
KMC5 260624Z 23015G20KT 22/10 A3002 RMK A01 T02240100  RH  045%=      5-min Rain = 0
KMC5 260625Z 23015KT 22/10 A3002 RMK A01 T02240102  RH  046%=      5-min Rain = 0
KMC5 260626Z 23013KT 22/10 A3002 RMK A01 T02230103  RH  047%=      5-min Rain = 0
KMC5 260627Z 22016KT 22/10 A3002 RMK A01 T02220102  RH  047%=      5-min Rain = 0
KMC5 260628Z 22015KT 22/10 A3003 RMK A01 T02220103  RH  047%=      5-min Rain = 0
KMC5 260629Z 22013KT 22/10 A3003 RMK A01 T02220104  RH  047%=      5-min Rain = 0
KMC5 260630Z 22016KT 22/11 A3003 RMK A01 T02210105  RH  048%=      5-min Rain = 0
KMC5 260631Z 22014KT 22/10 A3003 RMK A01 T02200104  RH  048%=      5-min Rain = 0
KMC5 260632Z 22013KT 22/11 A3003 RMK A01 T02200105  RH  048%=      5-min Rain = 0
KMC5 260633Z 21013KT 22/11 A3003 RMK A01 T02200105  RH  048%=      5-min Rain = 0
KMC5 260634Z 21014KT 22/11 A3003 RMK A01 T02200106  RH  048%=      5-min Rain = 0
KMC5 260635Z 21011KT 22/11 A3004 RMK A01 T02200106  RH  048%=      5-min Rain = 0
KMC5 260636Z 20012KT 22/11 A3004 RMK A01 T02210107  RH  048%=      5-min Rain = 0
KMC5 260637Z 21012KT 22/11 A3004 RMK A01 T02200108  RH  049%=      5-min Rain = 0
KMC5 260638Z 21011KT 22/11 A3004 RMK A01 T02200110  RH  049%=      5-min Rain = 0
KMC5 260639Z 20011KT 22/11 A3004 RMK A01 T02200110  RH  050%=      5-min Rain = 0
KMC5 260640Z 21010KT 22/11 A3004 RMK A01 T02200110  RH  050%=      5-min Rain = 0
KMC5 260641Z 21009KT 22/11 A3004 RMK A01 T02200110  RH  050%=      5-min Rain = 0
KMC5 260642Z 20011G17KT 22/11 A3004 RMK A01 T02200111  RH  050%=      5-min Rain = 0
KMC5 260643Z 20013KT 22/11 A3004 RMK A01 T02190112  RH  050%=      5-min Rain = 0
KMC5 260644Z 21010KT 22/11 A3004 RMK A01 T02190113  RH  051%=      5-min Rain = 0
KMC5 260645Z 21013KT 22/11 A3004 RMK A01 T02180112  RH  051%=      5-min Rain = 0
KMC5 260646Z 21012KT 22/11 A3004 RMK A01 T02190113  RH  051%=      5-min Rain = 0
KMC5 260647Z 20013KT 22/11 A3004 RMK A01 T02190114  RH  051%=      5-min Rain = 0
KMC5 260648Z 21011KT 22/12 A3004 RMK A01 T02180115  RH  052%=      5-min Rain = 0
KMC5 260649Z 21010KT 22/12 A3004 RMK A01 T02180116  RH  052%=      5-min Rain = 0
KMC5 260650Z 22010KT 22/12 A3004 RMK A01 T02170116  RH  053%=      5-min Rain = 0
KMC5 260651Z 22010KT 22/12 A3004 RMK A01 T02160116  RH  053%=      5-min Rain = 0
KMC5 260652Z 21013KT 22/12 A3004 RMK A01 T02160116  RH  053%=      5-min Rain = 0
KMC5 260653Z 21012KT 22/12 A3004 RMK A01 T02160117  RH  053%=      5-min Rain = 0
KMC5 260654Z 22011KT 22/12 A3004 RMK A01 T02160118  RH  054%=      5-min Rain = 0
KMC5 260655Z 22010KT 22/12 A3004 RMK A01 T02160118  RH  054%=      5-min Rain = 0
KMC5 260656Z 22010KT 22/12 A3004 RMK A01 T02160118  RH  053%=      5-min Rain = 0
KMC5 260657Z 21007KT 22/12 A3004 RMK A01 T02170119  RH  053%=      5-min Rain = 0
KMC5 260658Z 20010KT 22/12 A3004 RMK A01 T02170119  RH  054%=      5-min Rain = 0
KMC5 260659Z 21008KT 22/12 A3004 RMK A01 T02160120  RH  054%=      5-min Rain = 0
KMC5 260700Z 20008KT 22/12 A3004 RMK A01 T02150121  RH  055%=      5-min Rain = 0
KMC5 260701Z 20009KT 22/12 A3004 RMK A01 T02150121  RH  055%=      5-min Rain = 0
KMC5 260702Z 20008KT 22/12 A3004 RMK A01 T02160122  RH  055%=      5-min Rain = 0
KMC5 260703Z 20007KT 22/12 A3005 RMK A01 T02170123  RH  055%=      5-min Rain = 0
KMC5 260704Z 19006KT 22/12 A3005 RMK A01 T02160123  RH  055%=      5-min Rain = 0
KMC5 260705Z 19007KT 22/12 A3005 RMK A01 T02150123  RH  056%=      5-min Rain = 0
KMC5 260706Z 18007KT 21/12 A3005 RMK A01 T02140123  RH  056%=      5-min Rain = 0
KMC5 260707Z 17007KT 21/12 A3005 RMK A01 T02130122  RH  056%=      5-min Rain = 0
KMC5 260708Z 17008KT 21/12 A3005 RMK A01 T02130123  RH  056%=      5-min Rain = 0
KMC5 260709Z 17008KT 21/12 A3005 RMK A01 T02130123  RH  056%=      5-min Rain = 0
KMC5 260710Z 17007KT 21/12 A3005 RMK A01 T02130124  RH  057%=      5-min Rain = 0
KMC5 260711Z 17006KT 21/12 A3005 RMK A01 T02120124  RH  057%=      5-min Rain = 0
KMC5 260712Z 17006KT 21/12 A3005 RMK A01 T02110124  RH  058%=      5-min Rain = 0
KMC5 260713Z 18006KT 21/12 A3005 RMK A01 T02110124  RH  058%=      5-min Rain = 0
KMC5 260714Z 18008KT 21/12 A3005 RMK A01 T02100124  RH  058%=      5-min Rain = 0
KMC5 260715Z 19009KT 21/12 A3005 RMK A01 T02100124  RH  058%=      5-min Rain = 0
KMC5 260716Z 20009KT 21/13 A3005 RMK A01 T02100125  RH  058%=      5-min Rain = 0
KMC5 260717Z 20011KT 21/13 A3005 RMK A01 T02100125  RH  058%=      5-min Rain = 0
KMC5 260718Z 20011KT 21/13 A3005 RMK A01 T02100125  RH  058%=      5-min Rain = 0
KMC5 260719Z 20011KT 21/13 A3005 RMK A01 T02110126  RH  058%=      5-min Rain = 0
KMC5 260720Z 20011KT 21/13 A3005 RMK A01 T02110126  RH  058%=      5-min Rain = 0
KMC5 260721Z 19011KT 21/13 A3005 RMK A01 T02120128  RH  059%=      5-min Rain = 0
KMC5 260722Z 20010KT 21/13 A3005 RMK A01 T02110128  RH  059%=      5-min Rain = 0
KMC5 260723Z 19010KT 21/13 A3005 RMK A01 T02100127  RH  059%=      5-min Rain = 0
KMC5 260724Z 20010KT 21/13 A3005 RMK A01 T02100127  RH  059%=      5-min Rain = 0
KMC5 260725Z 19011KT 21/13 A3005 RMK A01 T02110128  RH  059%=      5-min Rain = 0
KMC5 260726Z 19009KT 21/13 A3005 RMK A01 T02110128  RH  059%=      5-min Rain = 0
KMC5 260727Z 19010KT 21/13 A3005 RMK A01 T02110129  RH  059%=      5-min Rain = 0
KMC5 260728Z 19009KT 21/13 A3005 RMK A01 T02110130  RH  060%=      5-min Rain = 0
KMC5 260729Z 18009KT 21/13 A3005 RMK A01 T02100130  RH  060%=      5-min Rain = 0
KMC5 260730Z 19009KT 21/13 A3005 RMK A01 T02090130  RH  060%=      5-min Rain = 0
KMC5 260731Z 18010KT 21/13 A3005 RMK A01 T02090130  RH  061%=      5-min Rain = 0
KMC5 260732Z 19011KT 21/13 A3005 RMK A01 T02090130  RH  061%=      5-min Rain = 0
KMC5 260733Z 19010KT 21/13 A3006 RMK A01 T02100130  RH  060%=      5-min Rain = 0
KMC5 260734Z 19012KT 21/13 A3005 RMK A01 T02110130  RH  060%=      5-min Rain = 0
KMC5 260735Z 19011KT 21/13 A3005 RMK A01 T02120132  RH  060%=      5-min Rain = 0
KMC5 260736Z 19011KT 21/13 A3006 RMK A01 T02130132  RH  060%=      5-min Rain = 0
KMC5 260737Z 20010KT 21/13 A3005 RMK A01 T02120132  RH  060%=      5-min Rain = 0
KMC5 260738Z 20010KT 21/13 A3005 RMK A01 T02110132  RH  061%=      5-min Rain = 0
KMC5 260739Z 20010KT 21/13 A3005 RMK A01 T02090131  RH  061%=      5-min Rain = 0
KMC5 260740Z 20010KT 21/13 A3005 RMK A01 T02090131  RH  061%=      5-min Rain = 0
KMC5 260741Z 21010KT 21/13 A3005 RMK A01 T02080131  RH  061%=      5-min Rain = 0
KMC5 260742Z 21009KT 21/13 A3005 RMK A01 T02080131  RH  061%=      5-min Rain = 0
KMC5 260743Z 21009KT 21/13 A3005 RMK A01 T02080132  RH  062%=      5-min Rain = 0
KMC5 260744Z 21008KT 21/13 A3005 RMK A01 T02070132  RH  062%=      5-min Rain = 0
KMC5 260745Z 20008KT 21/13 A3005 RMK A01 T02060132  RH  062%=      5-min Rain = 0
KMC5 260746Z 20008KT 21/13 A3005 RMK A01 T02060132  RH  062%=      5-min Rain = 0
KMC5 260747Z 20008KT 21/13 A3005 RMK A01 T02060132  RH  062%=      5-min Rain = 0
KMC5 260748Z 19008KT 21/13 A3005 RMK A01 T02060133  RH  063%=      5-min Rain = 0
KMC5 260749Z 19007KT 21/13 A3005 RMK A01 T02060134  RH  063%=      5-min Rain = 0
KMC5 260750Z 18007KT 21/13 A3005 RMK A01 T02050134  RH  064%=      5-min Rain = 0
KMC5 260751Z 18006KT 20/13 A3005 RMK A01 T02040134  RH  064%=      5-min Rain = 0
KMC5 260752Z 17006KT 20/13 A3006 RMK A01 T02030134  RH  064%=      5-min Rain = 0
KMC5 260753Z 16005KT 20/13 A3006 RMK A01 T02020134  RH  065%=      5-min Rain = 0
KMC5 260754Z 15005KT 20/13 A3006 RMK A01 T02010134  RH  065%=      5-min Rain = 0
KMC5 260755Z 14004KT 20/13 A3006 RMK A01 T01990134  RH  066%=      5-min Rain = 0
KMC5 260756Z 14005KT 20/13 A3005 RMK A01 T01990133  RH  066%=      5-min Rain = 0
KMC5 260757Z 15005KT 20/13 A3005 RMK A01 T01980133  RH  066%=      5-min Rain = 0
KMC5 260758Z 16006KT 20/13 A3005 RMK A01 T01980132  RH  066%=      5-min Rain = 0
KMC5 260759Z 17006KT 20/13 A3005 RMK A01 T01970132  RH  066%=      5-min Rain = 0
KMC5 260800Z 18005KT 20/13 A3005 RMK A01 T01970132  RH  066%=      5-min Rain = 0
KMC5 260801Z 18006KT 20/13 A3005 RMK A01 T01970132  RH  066%=      5-min Rain = 0
KMC5 260802Z 18006KT 20/13 A3005 RMK A01 T01970132  RH  066%=      5-min Rain = 0
KMC5 260803Z 18007KT 20/13 A3005 RMK A01 T01970132  RH  066%=      5-min Rain = 0
KMC5 260804Z 19008KT 20/13 A3005 RMK A01 T01980133  RH  066%=      5-min Rain = 0
KMC5 260805Z 19009KT 20/13 A3005 RMK A01 T01980133  RH  066%=      5-min Rain = 0
KMC5 260806Z 18010KT 20/13 A3005 RMK A01 T01990134  RH  066%=      5-min Rain = 0
KMC5 260807Z 18009KT 20/13 A3005 RMK A01 T02000134  RH  066%=      5-min Rain = 0
KMC5 260808Z 17008KT 20/14 A3005 RMK A01 T02000135  RH  066%=      5-min Rain = 0
KMC5 260809Z 17008KT 20/14 A3005 RMK A01 T01990136  RH  067%=      5-min Rain = 0
KMC5 260810Z 16008KT 20/14 A3005 RMK A01 T01980135  RH  067%=      5-min Rain = 0
KMC5 260811Z 17008KT 20/14 A3005 RMK A01 T01980135  RH  067%=      5-min Rain = 0
KMC5 260812Z 18008KT 20/14 A3005 RMK A01 T01970135  RH  068%=      5-min Rain = 0
KMC5 260813Z 18008KT 20/14 A3005 RMK A01 T01950135  RH  068%=      5-min Rain = 0
KMC5 260814Z 18009KT 19/13 A3005 RMK A01 T01940134  RH  068%=      5-min Rain = 0
KMC5 260815Z 18009KT 19/14 A3005 RMK A01 T01940135  RH  068%=      5-min Rain = 0
KMC5 260816Z 18010KT 19/13 A3005 RMK A01 T01930134  RH  068%=      5-min Rain = 0
KMC5 260817Z 19010KT 19/13 A3005 RMK A01 T01930133  RH  068%=      5-min Rain = 0
KMC5 260818Z 19010KT 19/13 A3005 RMK A01 T01940132  RH  067%=      5-min Rain = 0
KMC5 260819Z 19010KT 20/13 A3004 RMK A01 T01960132  RH  067%=      5-min Rain = 0
KMC5 260820Z 19011KT 20/13 A3004 RMK A01 T01960133  RH  067%=      5-min Rain = 0
KMC5 260821Z 19010KT 20/13 A3005 RMK A01 T01970133  RH  066%=      5-min Rain = 0
KMC5 260822Z 18010KT 20/13 A3005 RMK A01 T01980133  RH  066%=      5-min Rain = 0
KMC5 260823Z 18010KT 20/13 A3005 RMK A01 T01980133  RH  066%=      5-min Rain = 0
KMC5 260824Z 17010KT 20/13 A3005 RMK A01 T01980133  RH  066%=      5-min Rain = 0
KMC5 260825Z 17009KT 20/13 A3005 RMK A01 T01980133  RH  066%=      5-min Rain = 0
KMC5 260826Z 16009KT 20/13 A3005 RMK A01 T01970133  RH  067%=      5-min Rain = 0
KMC5 260827Z 17008KT 20/13 A3005 RMK A01 T01950132  RH  067%=      5-min Rain = 0
KMC5 260828Z 17008KT 19/13 A3005 RMK A01 T01940133  RH  068%=      5-min Rain = 0
KMC5 260829Z 18008KT 19/13 A3005 RMK A01 T01930133  RH  068%=      5-min Rain = 0
KMC5 260830Z 18009KT 19/13 A3005 RMK A01 T01920133  RH  069%=      5-min Rain = 0
KMC5 260831Z 18009KT 19/13 A3004 RMK A01 T01930134  RH  068%=      5-min Rain = 0
KMC5 260832Z 18009KT 20/14 A3005 RMK A01 T01950135  RH  068%=      5-min Rain = 0
KMC5 260833Z 18009KT 20/14 A3005 RMK A01 T01950135  RH  068%=      5-min Rain = 0
KMC5 260834Z 17009KT 20/14 A3005 RMK A01 T01950136  RH  069%=      5-min Rain = 0
KMC5 260835Z 17009KT 20/14 A3005 RMK A01 T01950136  RH  069%=      5-min Rain = 0
KMC5 260836Z 17008KT 19/14 A3005 RMK A01 T01930136  RH  069%=      5-min Rain = 0
KMC5 260837Z 17008KT 19/14 A3005 RMK A01 T01920136  RH  070%=      5-min Rain = 0
KMC5 260838Z 16008KT 19/14 A3005 RMK A01 T01920136  RH  070%=      5-min Rain = 0
KMC5 260839Z 16008KT 19/14 A3005 RMK A01 T01910136  RH  070%=      5-min Rain = 0
KMC5 260840Z 17008KT 19/14 A3005 RMK A01 T01910136  RH  070%=      5-min Rain = 0
KMC5 260841Z 17009KT 19/14 A3005 RMK A01 T01910136  RH  070%=      5-min Rain = 0
KMC5 260842Z 17010KT 19/14 A3005 RMK A01 T01910137  RH  071%=      5-min Rain = 0
KMC5 260843Z 17009KT 19/14 A3005 RMK A01 T01930138  RH  070%=      5-min Rain = 0
KMC5 260844Z 18010KT 19/14 A3005 RMK A01 T01940138  RH  070%=      5-min Rain = 0
KMC5 260845Z 18010KT 20/14 A3005 RMK A01 T01950139  RH  070%=      5-min Rain = 0
KMC5 260846Z 18010KT 20/14 A3004 RMK A01 T01950139  RH  070%=      5-min Rain = 0
KMC5 260847Z 18010KT 20/14 A3005 RMK A01 T01960139  RH  070%=      5-min Rain = 0
KMC5 260848Z 18010KT 20/14 A3005 RMK A01 T01960140  RH  070%=      5-min Rain = 0
KMC5 260849Z 17010KT 20/14 A3005 RMK A01 T01960141  RH  070%=      5-min Rain = 0
KMC5 260850Z 16010KT 20/14 A3005 RMK A01 T01950141  RH  071%=      5-min Rain = 0
KMC5 260851Z 16010KT 19/14 A3005 RMK A01 T01940140  RH  071%=      5-min Rain = 0
KMC5 260852Z 16009KT 19/14 A3005 RMK A01 T01930141  RH  071%=      5-min Rain = 0
KMC5 260853Z 16009KT 19/14 A3005 RMK A01 T01930141  RH  072%=      5-min Rain = 0
KMC5 260854Z 16008KT 19/14 A3005 RMK A01 T01920141  RH  072%=      5-min Rain = 0
KMC5 260855Z 16008KT 19/14 A3005 RMK A01 T01910141  RH  073%=      5-min Rain = 0
KMC5 260856Z 17008KT 19/14 A3005 RMK A01 T01900140  RH  073%=      5-min Rain = 0
KMC5 260857Z 18007KT 19/14 A3005 RMK A01 T01900141  RH  073%=      5-min Rain = 0
KMC5 260858Z 18008KT 19/14 A3005 RMK A01 T01890140  RH  073%=      5-min Rain = 0
KMC5 260859Z 18008KT 19/14 A3005 RMK A01 T01900140  RH  073%=      5-min Rain = 0
KMC5 260900Z 19008KT 19/14 A3005 RMK A01 T01920141  RH  073%=      5-min Rain = 0
KMC5 260901Z 19008KT 19/14 A3005 RMK A01 T01930142  RH  072%=      5-min Rain = 0
KMC5 260902Z 19008KT 19/14 A3005 RMK A01 T01930141  RH  072%=      5-min Rain = 0
KMC5 260903Z 19009KT 19/14 A3005 RMK A01 T01930142  RH  072%=      5-min Rain = 0
KMC5 260904Z 19009KT 19/14 A3005 RMK A01 T01930142  RH  072%=      5-min Rain = 0
KMC5 260905Z 19008KT 19/14 A3005 RMK A01 T01940142  RH  072%=      5-min Rain = 0
KMC5 260906Z 19008KT 20/14 A3005 RMK A01 T01950142  RH  072%=      5-min Rain = 0
KMC5 260907Z 19007KT 20/14 A3005 RMK A01 T01960143  RH  072%=      5-min Rain = 0
KMC5 260908Z 19007KT 20/14 A3005 RMK A01 T01950142  RH  072%=      5-min Rain = 0
KMC5 260909Z 19008KT 19/14 A3005 RMK A01 T01940143  RH  072%=      5-min Rain = 0
KMC5 260910Z 20007KT 19/14 A3005 RMK A01 T01930143  RH  072%=      5-min Rain = 0
KMC5 260911Z 19006KT 19/14 A3005 RMK A01 T01930143  RH  073%=      5-min Rain = 0
KMC5 260912Z 19006KT 19/14 A3005 RMK A01 T01920142  RH  073%=      5-min Rain = 0
KMC5 260913Z 19006KT 19/14 A3005 RMK A01 T01920142  RH  073%=      5-min Rain = 0
KMC5 260914Z 18008KT 19/14 A3005 RMK A01 T01920143  RH  073%=      5-min Rain = 0
KMC5 260915Z 18007KT 19/14 A3005 RMK A01 T01920143  RH  073%=      5-min Rain = 0
KMC5 260916Z 18007KT 19/14 A3005 RMK A01 T01920143  RH  073%=      5-min Rain = 0
KMC5 260917Z 18007KT 19/14 A3005 RMK A01 T01920144  RH  073%=      5-min Rain = 0
KMC5 260918Z 18007KT 19/14 A3005 RMK A01 T01920143  RH  073%=      5-min Rain = 0
KMC5 260919Z 18007KT 19/14 A3005 RMK A01 T01920144  RH  073%=      5-min Rain = 0
KMC5 260920Z 18007KT 19/14 A3005 RMK A01 T01920144  RH  074%=      5-min Rain = 0
KMC5 260921Z 18007KT 19/14 A3005 RMK A01 T01910144  RH  074%=      5-min Rain = 0
KMC5 260922Z 19007KT 19/14 A3005 RMK A01 T01900144  RH  074%=      5-min Rain = 0
KMC5 260923Z 19007KT 19/14 A3005 RMK A01 T01900144  RH  075%=      5-min Rain = 0
KMC5 260924Z 19007KT 19/14 A3005 RMK A01 T01900144  RH  075%=      5-min Rain = 0
KMC5 260925Z 18008KT 19/15 A3006 RMK A01 T01900145  RH  075%=      5-min Rain = 0
KMC5 260926Z 18008KT 19/15 A3006 RMK A01 T01910145  RH  075%=      5-min Rain = 0
KMC5 260927Z 18008KT 19/15 A3006 RMK A01 T01920146  RH  075%=      5-min Rain = 0
KMC5 260928Z 17008KT 19/15 A3006 RMK A01 T01930146  RH  074%=      5-min Rain = 0
KMC5 260929Z 17008KT 19/15 A3006 RMK A01 T01930146  RH  075%=      5-min Rain = 0
KMC5 260930Z 16008KT 19/15 A3006 RMK A01 T01920146  RH  075%=      5-min Rain = 0
KMC5 260931Z 16007KT 19/15 A3006 RMK A01 T01910146  RH  075%=      5-min Rain = 0
KMC5 260932Z 16007KT 19/15 A3006 RMK A01 T01910146  RH  075%=      5-min Rain = 0
KMC5 260933Z 17007KT 19/15 A3006 RMK A01 T01900146  RH  075%=      5-min Rain = 0
KMC5 260934Z 17007KT 19/15 A3006 RMK A01 T01910146  RH  075%=      5-min Rain = 0
KMC5 260935Z 18008KT 19/15 A3006 RMK A01 T01910146  RH  075%=      5-min Rain = 0
KMC5 260936Z 18009KT 19/15 A3006 RMK A01 T01920146  RH  075%=      5-min Rain = 0
KMC5 260937Z 19009KT 19/15 A3006 RMK A01 T01930147  RH  074%=      5-min Rain = 0
KMC5 260938Z 20009KT 20/15 A3006 RMK A01 T01950148  RH  074%=      5-min Rain = 0
KMC5 260939Z 20009KT 20/15 A3006 RMK A01 T01970148  RH  073%=      5-min Rain = 0
KMC5 260940Z 20008KT 20/15 A3006 RMK A01 T01980148  RH  073%=      5-min Rain = 0
KMC5 260941Z 20006KT 20/15 A3006 RMK A01 T01970148  RH  073%=      5-min Rain = 0
KMC5 260942Z 19006KT 19/15 A3006 RMK A01 T01940148  RH  074%=      5-min Rain = 0
KMC5 260943Z 19006KT 19/15 A3007 RMK A01 T01920147  RH  075%=      5-min Rain = 0
KMC5 260944Z 18007KT 19/15 A3007 RMK A01 T01920148  RH  076%=      5-min Rain = 0
KMC5 260945Z 18006KT 19/15 A3007 RMK A01 T01930148  RH  075%=      5-min Rain = 0
KMC5 260946Z 17006KT 19/15 A3007 RMK A01 T01940148  RH  075%=      5-min Rain = 0
KMC5 260947Z 18006KT 19/15 A3007 RMK A01 T01940148  RH  075%=      5-min Rain = 0
KMC5 260948Z 17005KT 19/15 A3007 RMK A01 T01920148  RH  075%=      5-min Rain = 0
KMC5 260949Z 18005KT 19/15 A3007 RMK A01 T01910148  RH  076%=      5-min Rain = 0
KMC5 260950Z 18005KT 19/15 A3007 RMK A01 T01890148  RH  077%=      5-min Rain = 0
KMC5 260951Z 19005KT 19/15 A3007 RMK A01 T01890148  RH  077%=      5-min Rain = 0
KMC5 260952Z 19005KT 19/15 A3007 RMK A01 T01890148  RH  077%=      5-min Rain = 0
KMC5 260953Z 19006KT 19/15 A3007 RMK A01 T01890148  RH  077%=      5-min Rain = 0
KMC5 260954Z 19006KT 19/15 A3007 RMK A01 T01880148  RH  077%=      5-min Rain = 0
KMC5 260955Z 19006KT 19/15 A3007 RMK A01 T01890149  RH  077%=      5-min Rain = 0
KMC5 260956Z 19006KT 19/15 A3007 RMK A01 T01890149  RH  077%=      5-min Rain = 0
KMC5 260957Z 19006KT 19/15 A3007 RMK A01 T01900149  RH  077%=      5-min Rain = 0
KMC5 260958Z 18006KT 19/15 A3007 RMK A01 T01890149  RH  077%=      5-min Rain = 0
KMC5 260959Z 16005KT 19/15 A3007 RMK A01 T01890149  RH  078%=      5-min Rain = 0
KMC5 261000Z 15005KT 19/15 A3007 RMK A01 T01880149  RH  078%=      5-min Rain = 0
KMC5 261001Z 14005KT 19/15 A3007 RMK A01 T01860148  RH  078%=      5-min Rain = 0
KMC5 261002Z 16006KT 19/15 A3007 RMK A01 T01860148  RH  078%=      5-min Rain = 0
KMC5 261003Z 17007KT 19/15 A3007 RMK A01 T01860148  RH  079%=      5-min Rain = 0
KMC5 261004Z 18009KT 19/15 A3007 RMK A01 T01870148  RH  078%=      5-min Rain = 0
KMC5 261005Z 18008KT 19/15 A3007 RMK A01 T01900150  RH  077%=      5-min Rain = 0
KMC5 261006Z 18007KT 19/15 A3007 RMK A01 T01920150  RH  076%=      5-min Rain = 0
KMC5 261007Z 18007KT 19/15 A3007 RMK A01 T01930149  RH  076%=      5-min Rain = 0
KMC5 261008Z 18007KT 19/15 A3007 RMK A01 T01930149  RH  076%=      5-min Rain = 0
KMC5 261009Z 18006KT 19/15 A3007 RMK A01 T01930150  RH  076%=      5-min Rain = 0
KMC5 261010Z 19006KT 19/15 A3007 RMK A01 T01930150  RH  076%=      5-min Rain = 0
KMC5 261011Z 19005KT 19/15 A3007 RMK A01 T01930149  RH  076%=      5-min Rain = 0
KMC5 261012Z 19006KT 19/15 A3007 RMK A01 T01930149  RH  076%=      5-min Rain = 0
KMC5 261013Z 20005KT 19/15 A3007 RMK A01 T01930149  RH  076%=      5-min Rain = 0
KMC5 261014Z 20006KT 19/15 A3007 RMK A01 T01930149  RH  076%=      5-min Rain = 0
KMC5 261015Z 20005KT 19/15 A3007 RMK A01 T01930150  RH  076%=      5-min Rain = 0
KMC5 261016Z 20005KT 19/15 A3007 RMK A01 T01910149  RH  076%=      5-min Rain = 0
KMC5 261017Z 21005KT 19/15 A3006 RMK A01 T01910150  RH  077%=      5-min Rain = 0
KMC5 261018Z 20006KT 19/15 A3006 RMK A01 T01900149  RH  077%=      5-min Rain = 0
KMC5 261019Z 20006KT 19/15 A3006 RMK A01 T01900149  RH  077%=      5-min Rain = 0
KMC5 261020Z 20006KT 19/15 A3006 RMK A01 T01900150  RH  077%=      5-min Rain = 0
KMC5 261021Z 19007KT 19/15 A3006 RMK A01 T01900150  RH  077%=      5-min Rain = 0
KMC5 261022Z 20007KT 19/15 A3006 RMK A01 T01900150  RH  077%=      5-min Rain = 0
KMC5 261023Z 20007KT 19/15 A3006 RMK A01 T01900151  RH  078%=      5-min Rain = 0
KMC5 261024Z 20007KT 19/15 A3006 RMK A01 T01900150  RH  078%=      5-min Rain = 0
KMC5 261025Z 19007KT 19/15 A3006 RMK A01 T01900151  RH  078%=      5-min Rain = 0
KMC5 261026Z 20006KT 19/15 A3006 RMK A01 T01900151  RH  078%=      5-min Rain = 0
KMC5 261027Z 20007KT 19/15 A3006 RMK A01 T01890151  RH  078%=      5-min Rain = 0
KMC5 261028Z 20006KT 19/15 A3006 RMK A01 T01890151  RH  078%=      5-min Rain = 0
KMC5 261029Z 20006KT 19/15 A3006 RMK A01 T01900151  RH  078%=      5-min Rain = 0
KMC5 261030Z 20007KT 19/15 A3006 RMK A01 T01900151  RH  078%=      5-min Rain = 0
KMC5 261031Z 21007KT 19/15 A3006 RMK A01 T01900151  RH  078%=      5-min Rain = 0
KMC5 261032Z 22006KT 19/15 A3006 RMK A01 T01900151  RH  078%=      5-min Rain = 0
KMC5 261033Z 22006KT 19/15 A3006 RMK A01 T01890151  RH  079%=      5-min Rain = 0
KMC5 261034Z 22005KT 19/15 A3006 RMK A01 T01880150  RH  079%=      5-min Rain = 0
KMC5 261035Z 22005KT 19/15 A3006 RMK A01 T01870150  RH  079%=      5-min Rain = 0
KMC5 261036Z 22005KT 19/15 A3006 RMK A01 T01870150  RH  079%=      5-min Rain = 0
KMC5 261037Z 24004KT 19/15 A3006 RMK A01 T01870150  RH  079%=      5-min Rain = 0
KMC5 261038Z 23004KT 19/15 A3006 RMK A01 T01870149  RH  079%=      5-min Rain = 0
KMC5 261039Z 23005KT 19/15 A3006 RMK A01 T01870150  RH  079%=      5-min Rain = 0
KMC5 261040Z 23005KT 19/15 A3006 RMK A01 T01870149  RH  079%=      5-min Rain = 0
KMC5 261041Z 23006KT 19/15 A3006 RMK A01 T01870149  RH  079%=      5-min Rain = 0
KMC5 261042Z 23006KT 19/15 A3006 RMK A01 T01860149  RH  079%=      5-min Rain = 0
KMC5 261043Z 23007KT 18/15 A3006 RMK A01 T01840149  RH  080%=      5-min Rain = 0
KMC5 261044Z 23008KT 18/15 A3006 RMK A01 T01830149  RH  080%=      5-min Rain = 0
KMC5 261045Z 22007KT 18/15 A3006 RMK A01 T01840150  RH  081%=      5-min Rain = 0
KMC5 261046Z 22007KT 19/15 A3006 RMK A01 T01850150  RH  080%=      5-min Rain = 0
KMC5 261047Z 22007KT 19/15 A3006 RMK A01 T01850150  RH  080%=      5-min Rain = 0
KMC5 261048Z 22008KT 19/15 A3006 RMK A01 T01850151  RH  081%=      5-min Rain = 0
KMC5 261049Z 22009KT 18/15 A3006 RMK A01 T01840151  RH  081%=      5-min Rain = 0
KMC5 261050Z 22009KT 19/15 A3006 RMK A01 T01850153  RH  081%=      5-min Rain = 0
KMC5 261051Z 22009KT 19/15 A3006 RMK A01 T01880154  RH  080%=      5-min Rain = 0
KMC5 261052Z 22010KT 19/15 A3006 RMK A01 T01900154  RH  080%=      5-min Rain = 0
KMC5 261053Z 22011KT 19/15 A3006 RMK A01 T01910154  RH  079%=      5-min Rain = 0
KMC5 261054Z 22011KT 19/15 A3006 RMK A01 T01920154  RH  078%=      5-min Rain = 0
KMC5 261055Z 22011KT 20/16 A3006 RMK A01 T01950155  RH  078%=      5-min Rain = 0
KMC5 261056Z 21011KT 20/16 A3006 RMK A01 T01960155  RH  077%=      5-min Rain = 0
KMC5 261057Z 22011KT 20/15 A3006 RMK A01 T01970154  RH  076%=      5-min Rain = 0
KMC5 261058Z 22010KT 20/16 A3006 RMK A01 T01980155  RH  076%=      5-min Rain = 0
KMC5 261059Z 21010KT 20/16 A3006 RMK A01 T01980155  RH  076%=      5-min Rain = 0
KMC5 261100Z 21011KT 20/15 A3006 RMK A01 T01970154  RH  076%=      5-min Rain = 0
KMC5 261101Z 21011KT 20/15 A3006 RMK A01 T01960154  RH  077%=      5-min Rain = 0
KMC5 261102Z 21011KT 20/15 A3006 RMK A01 T01950154  RH  077%=      5-min Rain = 0
KMC5 261103Z 21010KT 19/15 A3007 RMK A01 T01940154  RH  078%=      5-min Rain = 0
KMC5 261104Z 21010KT 19/15 A3007 RMK A01 T01930154  RH  078%=      5-min Rain = 0
KMC5 261105Z 21009KT 19/15 A3007 RMK A01 T01930154  RH  078%=      5-min Rain = 0
KMC5 261106Z 21009KT 19/15 A3007 RMK A01 T01920154  RH  079%=      5-min Rain = 0
KMC5 261107Z 21010KT 19/15 A3007 RMK A01 T01910154  RH  079%=      5-min Rain = 0
KMC5 261108Z 21009KT 19/15 A3007 RMK A01 T01890154  RH  080%=      5-min Rain = 0
KMC5 261109Z 21008KT 19/15 A3007 RMK A01 T01880154  RH  080%=      5-min Rain = 0
KMC5 261110Z 21008KT 19/15 A3007 RMK A01 T01870154  RH  081%=      5-min Rain = 0
KMC5 261111Z 21008KT 19/15 A3007 RMK A01 T01860154  RH  081%=      5-min Rain = 0
KMC5 261112Z 21008KT 19/15 A3007 RMK A01 T01860154  RH  082%=      5-min Rain = 0
KMC5 261113Z 21008KT 19/15 A3007 RMK A01 T01850154  RH  082%=      5-min Rain = 0
KMC5 261114Z 21008KT 18/15 A3008 RMK A01 T01840154  RH  082%=      5-min Rain = 0
KMC5 261115Z 21008KT 19/15 A3008 RMK A01 T01850154  RH  082%=      5-min Rain = 0
KMC5 261116Z 21008KT 19/15 A3008 RMK A01 T01850154  RH  082%=      5-min Rain = 0
KMC5 261117Z 21008KT 19/16 A3008 RMK A01 T01860155  RH  082%=      5-min Rain = 0
KMC5 261118Z 21008KT 19/16 A3008 RMK A01 T01880155  RH  081%=      5-min Rain = 0
KMC5 261119Z 21008KT 19/16 A3008 RMK A01 T01890155  RH  081%=      5-min Rain = 0
KMC5 261120Z 21008KT 19/16 A3008 RMK A01 T01890155  RH  080%=      5-min Rain = 0
KMC5 261121Z 21007KT 19/16 A3008 RMK A01 T01900155  RH  080%=      5-min Rain = 0
KMC5 261122Z 21008KT 19/16 A3008 RMK A01 T01890155  RH  081%=      5-min Rain = 0
KMC5 261123Z 20008KT 19/16 A3008 RMK A01 T01890155  RH  081%=      5-min Rain = 0
KMC5 261124Z 20008KT 19/16 A3008 RMK A01 T01890155  RH  080%=      5-min Rain = 0
KMC5 261125Z 20008KT 19/16 A3008 RMK A01 T01910155  RH  080%=      5-min Rain = 0
KMC5 261126Z 20008KT 19/16 A3008 RMK A01 T01910155  RH  080%=      5-min Rain = 0
KMC5 261127Z 20008KT 19/16 A3008 RMK A01 T01910155  RH  080%=      5-min Rain = 0
KMC5 261128Z 20008KT 19/16 A3009 RMK A01 T01910155  RH  080%=      5-min Rain = 0
KMC5 261129Z 20008KT 19/16 A3009 RMK A01 T01910155  RH  080%=      5-min Rain = 0
KMC5 261130Z 20008KT 19/16 A3009 RMK A01 T01910155  RH  080%=      5-min Rain = 0
KMC5 261131Z 20008KT 19/16 A3009 RMK A01 T01910156  RH  080%=      5-min Rain = 0
KMC5 261132Z 20008KT 19/16 A3009 RMK A01 T01910156  RH  080%=      5-min Rain = 0
KMC5 261133Z 20008KT 19/16 A3009 RMK A01 T01920156  RH  080%=      5-min Rain = 0
KMC5 261134Z 20008KT 19/16 A3009 RMK A01 T01920156  RH  079%=      5-min Rain = 0
KMC5 261135Z 20008KT 19/16 A3009 RMK A01 T01930156  RH  080%=      5-min Rain = 0
KMC5 261136Z 20008KT 19/16 A3009 RMK A01 T01920157  RH  080%=      5-min Rain = 0
KMC5 261137Z 20008KT 19/16 A3009 RMK A01 T01920157  RH  080%=      5-min Rain = 0
KMC5 261138Z 20008KT 19/16 A3009 RMK A01 T01920157  RH  080%=      5-min Rain = 0
KMC5 261139Z 21008KT 19/16 A3009 RMK A01 T01920157  RH  080%=      5-min Rain = 0
KMC5 261140Z 21008KT 19/16 A3009 RMK A01 T01900157  RH  081%=      5-min Rain = 0
KMC5 261141Z 21008KT 19/16 A3009 RMK A01 T01890156  RH  081%=      5-min Rain = 0
KMC5 261142Z 21009KT 19/16 A3009 RMK A01 T01890156  RH  081%=      5-min Rain = 0
KMC5 261143Z 21009KT 19/16 A3009 RMK A01 T01890156  RH  081%=      5-min Rain = 0
KMC5 261144Z 21010KT 19/16 A3009 RMK A01 T01890157  RH  081%=      5-min Rain = 0
KMC5 261145Z 21010KT 19/16 A3009 RMK A01 T01890157  RH  081%=      5-min Rain = 0
KMC5 261146Z 21010KT 19/16 A3009 RMK A01 T01900157  RH  081%=      5-min Rain = 0
KMC5 261147Z 21010KT 19/16 A3009 RMK A01 T01910158  RH  081%=      5-min Rain = 0
KMC5 261148Z 20010KT 19/16 A3009 RMK A01 T01910158  RH  081%=      5-min Rain = 0
KMC5 261149Z 21010KT 19/16 A3009 RMK A01 T01920158  RH  081%=      5-min Rain = 0
KMC5 261150Z 20010KT 19/16 A3009 RMK A01 T01930158  RH  080%=      5-min Rain = 0
KMC5 261151Z 20010KT 19/16 A3009 RMK A01 T01940158  RH  080%=      5-min Rain = 0
KMC5 261152Z 20010KT 19/16 A3009 RMK A01 T01940158  RH  080%=      5-min Rain = 0
KMC5 261153Z 20010KT 19/16 A3009 RMK A01 T01940158  RH  080%=      5-min Rain = 0
KMC5 261154Z 19009KT 20/16 A3009 RMK A01 T01950159  RH  079%=      5-min Rain = 0
KMC5 261155Z 19009KT 20/16 A3009 RMK A01 T01950159  RH  079%=      5-min Rain = 0
KMC5 261156Z 19009KT 20/16 A3009 RMK A01 T01960159  RH  079%=      5-min Rain = 0
KMC5 261157Z 18008KT 20/16 A3009 RMK A01 T01960159  RH  079%=      5-min Rain = 0
KMC5 261158Z 18008KT 20/16 A3009 RMK A01 T01960160  RH  080%=      5-min Rain = 0
KMC5 261159Z 18009KT 20/16 A301 RMK A01 T01950159  RH  080%=      5-min Rain = 0
KMC5 261200Z 18009KT 20/16 A301 RMK A01 T01950159  RH  080%=      5-min Rain = 0
KMC5 261201Z 18010KT 20/16 A301 RMK A01 T01950159  RH  080%=      5-min Rain = 0
KMC5 261202Z 18009KT 20/16 A301 RMK A01 T01950159  RH  079%=      5-min Rain = 0
KMC5 261203Z 19009KT 20/16 A301 RMK A01 T01950159  RH  079%=      5-min Rain = 0
KMC5 261204Z 18008KT 20/16 A301 RMK A01 T01950159  RH  079%=      5-min Rain = 0
KMC5 261205Z 19008KT 20/16 A301 RMK A01 T01950159  RH  080%=      5-min Rain = 0
KMC5 261206Z 19008KT 19/16 A301 RMK A01 T01940159  RH  080%=      5-min Rain = 0
KMC5 261207Z 19008KT 19/16 A301 RMK A01 T01940159  RH  080%=      5-min Rain = 0
KMC5 261208Z 19008KT 19/16 A301 RMK A01 T01940158  RH  080%=      5-min Rain = 0
KMC5 261209Z 19008KT 19/16 A301 RMK A01 T01940159  RH  080%=      5-min Rain = 0
KMC5 261210Z 20008KT 20/16 A301 RMK A01 T01960159  RH  079%=      5-min Rain = 0
KMC5 261211Z 19008KT 20/16 A301 RMK A01 T01960159  RH  079%=      5-min Rain = 0
KMC5 261212Z 19009KT 20/16 A301 RMK A01 T01970159  RH  079%=      5-min Rain = 0
KMC5 261213Z 20009KT 20/16 A301 RMK A01 T01980160  RH  079%=      5-min Rain = 0
KMC5 261214Z 20009KT 20/16 A301 RMK A01 T01980159  RH  078%=      5-min Rain = 0
KMC5 261215Z 20009KT 20/16 A301 RMK A01 T01980159  RH  078%=      5-min Rain = 0
KMC5 261216Z 20009KT 20/16 A301 RMK A01 T01990160  RH  078%=      5-min Rain = 0
KMC5 261217Z 20009KT 20/16 A301 RMK A01 T01990160  RH  078%=      5-min Rain = 0
KMC5 261218Z 21009KT 20/16 A301 RMK A01 T01990160  RH  078%=      5-min Rain = 0
KMC5 261219Z 21009KT 20/16 A301 RMK A01 T01990161  RH  079%=      5-min Rain = 0
KMC5 261220Z 21008KT 20/16 A301 RMK A01 T01980161  RH  079%=      5-min Rain = 0
KMC5 261221Z 21008KT 20/16 A301 RMK A01 T01970161  RH  080%=      5-min Rain = 0
KMC5 261222Z 21008KT 20/16 A301 RMK A01 T01970162  RH  080%=      5-min Rain = 0
KMC5 261223Z 21008KT 20/16 A301 RMK A01 T01960161  RH  080%=      5-min Rain = 0
KMC5 261224Z 21008KT 20/16 A301 RMK A01 T01960161  RH  081%=      5-min Rain = 0
KMC5 261225Z 21008KT 20/16 A301 RMK A01 T01960162  RH  080%=      5-min Rain = 0
KMC5 261226Z 21009KT 20/16 A301 RMK A01 T01970162  RH  080%=      5-min Rain = 0
KMC5 261227Z 21009KT 20/16 A3009 RMK A01 T01980162  RH  080%=      5-min Rain = 0
KMC5 261228Z 21009KT 20/16 A3009 RMK A01 T02000162  RH  079%=      5-min Rain = 0
KMC5 261229Z 21009KT 20/16 A301 RMK A01 T02010163  RH  079%=      5-min Rain = 0
KMC5 261230Z 21009KT 20/16 A301 RMK A01 T02020163  RH  078%=      5-min Rain = 0
KMC5 261231Z 21009KT 20/16 A301 RMK A01 T02020163  RH  078%=      5-min Rain = 0
KMC5 261232Z 21010KT 20/16 A301 RMK A01 T02030164  RH  078%=      5-min Rain = 0
KMC5 261233Z 21009KT 20/16 A301 RMK A01 T02030164  RH  078%=      5-min Rain = 0
KMC5 261234Z 22009KT 20/16 A301 RMK A01 T02040164  RH  078%=      5-min Rain = 0
KMC5 261235Z 22009KT 20/17 A301 RMK A01 T02040165  RH  078%=      5-min Rain = 0
KMC5 261236Z 22009KT 21/17 A301 RMK A01 T02050165  RH  078%=      5-min Rain = 0
KMC5 261237Z 22010KT 21/17 A301 RMK A01 T02060166  RH  078%=      5-min Rain = 0
KMC5 261238Z 22010KT 21/17 A301 RMK A01 T02070165  RH  077%=      5-min Rain = 0
KMC5 261239Z 21010KT 21/17 A301 RMK A01 T02080167  RH  077%=      5-min Rain = 0
KMC5 261240Z 21011KT 21/17 A301 RMK A01 T02090166  RH  076%=      5-min Rain = 0
KMC5 261241Z 21012KT 21/17 A301 RMK A01 T02110166  RH  076%=      5-min Rain = 0
KMC5 261242Z 21012KT 21/17 A301 RMK A01 T02120166  RH  075%=      5-min Rain = 0
KMC5 261243Z 21014KT 21/17 A301 RMK A01 T02130166  RH  075%=      5-min Rain = 0
KMC5 261244Z 21013KT 21/17 A301 RMK A01 T02140166  RH  074%=      5-min Rain = 0
KMC5 261245Z 22013KT 22/17 A301 RMK A01 T02150166  RH  074%=      5-min Rain = 0
KMC5 261246Z 21012KT 22/17 A301 RMK A01 T02160167  RH  074%=      5-min Rain = 0
KMC5 261247Z 21012KT 22/17 A301 RMK A01 T02160166  RH  073%=      5-min Rain = 0
KMC5 261248Z 21012KT 22/17 A301 RMK A01 T02160167  RH  073%=      5-min Rain = 0
KMC5 261249Z 21012KT 22/17 A301 RMK A01 T02170167  RH  073%=      5-min Rain = 0
KMC5 261250Z 22011KT 22/17 A301 RMK A01 T02170167  RH  073%=      5-min Rain = 0
KMC5 261251Z 21012KT 22/17 A301 RMK A01 T02180167  RH  073%=      5-min Rain = 0
KMC5 261252Z 21012KT 22/17 A301 RMK A01 T02180167  RH  073%=      5-min Rain = 0
KMC5 261253Z 21012KT 22/17 A301 RMK A01 T02190167  RH  072%=      5-min Rain = 0
KMC5 261254Z 21011KT 22/17 A301 RMK A01 T02200168  RH  072%=      5-min Rain = 0
KMC5 261255Z 22011KT 22/17 A301 RMK A01 T02200168  RH  072%=      5-min Rain = 0
KMC5 261256Z 21010KT 22/17 A301 RMK A01 T02210168  RH  072%=      5-min Rain = 0
KMC5 261257Z 21010KT 22/17 A301 RMK A01 T02210169  RH  072%=      5-min Rain = 0
KMC5 261258Z 21011KT 22/17 A301 RMK A01 T02220168  RH  072%=      5-min Rain = 0
KMC5 261259Z 21010KT 22/17 A301 RMK A01 T02220169  RH  072%=      5-min Rain = 0
KMC5 261300Z 20010KT 22/17 A301 RMK A01 T02220169  RH  072%=      5-min Rain = 0
KMC5 261301Z 20010KT 22/17 A301 RMK A01 T02220169  RH  072%=      5-min Rain = 0
KMC5 261302Z 20012KT 22/17 A3011 RMK A01 T02230168  RH  071%=      5-min Rain = 0
KMC5 261303Z 20010KT 22/17 A3011 RMK A01 T02230169  RH  071%=      5-min Rain = 0
KMC5 261304Z 20011KT 22/17 A3011 RMK A01 T02230169  RH  071%=      5-min Rain = 0
KMC5 261305Z 20011KT 22/17 A3011 RMK A01 T02240168  RH  071%=      5-min Rain = 0
KMC5 261306Z 20010KT 22/17 A3011 RMK A01 T02240170  RH  072%=      5-min Rain = 0
KMC5 261307Z 20011KT 22/17 A3011 RMK A01 T02240169  RH  071%=      5-min Rain = 0
KMC5 261308Z 20009KT 22/17 A3011 RMK A01 T02240169  RH  071%=      5-min Rain = 0
KMC5 261309Z 20008KT 23/17 A3011 RMK A01 T02250170  RH  071%=      5-min Rain = 0
KMC5 261310Z 20008KT 23/17 A3011 RMK A01 T02250171  RH  071%=      5-min Rain = 0
KMC5 261311Z 21009KT 23/17 A3011 RMK A01 T02250171  RH  071%=      5-min Rain = 0
KMC5 261312Z 21011KT 23/17 A3011 RMK A01 T02260168  RH  070%=      5-min Rain = 0
KMC5 261313Z 21010KT 23/17 A3011 RMK A01 T02260170  RH  070%=      5-min Rain = 0
KMC5 261314Z 21012KT 23/17 A3011 RMK A01 T02270167  RH  069%=      5-min Rain = 0
KMC5 261315Z 21010KT 23/17 A3011 RMK A01 T02270168  RH  069%=      5-min Rain = 0
KMC5 261316Z 20009KT 23/17 A3011 RMK A01 T02270169  RH  070%=      5-min Rain = 0
KMC5 261317Z 21010KT 23/17 A3011 RMK A01 T02270170  RH  070%=      5-min Rain = 0
KMC5 261318Z 21009KT 23/17 A3011 RMK A01 T02280170  RH  070%=      5-min Rain = 0
KMC5 261319Z 20010KT 23/17 A3011 RMK A01 T02290170  RH  070%=      5-min Rain = 0
KMC5 261320Z 21009KT 23/17 A3011 RMK A01 T02290169  RH  069%=      5-min Rain = 0
KMC5 261321Z 20010KT 23/17 A3011 RMK A01 T02290171  RH  070%=      5-min Rain = 0
KMC5 261322Z 20010KT 23/17 A3011 RMK A01 T02290169  RH  069%=      5-min Rain = 0
KMC5 261323Z 20011KT 23/17 A3011 RMK A01 T02300168  RH  068%=      5-min Rain = 0
KMC5 261324Z 20011KT 23/17 A3011 RMK A01 T02300168  RH  068%=      5-min Rain = 0
KMC5 261325Z 20012KT 23/17 A3011 RMK A01 T02300167  RH  068%=      5-min Rain = 0
KMC5 261326Z 21011KT 23/17 A3011 RMK A01 T02300169  RH  068%=      5-min Rain = 0
KMC5 261327Z 21010KT 23/17 A3011 RMK A01 T02300170  RH  069%=      5-min Rain = 0
KMC5 261328Z 20010KT 23/17 A3011 RMK A01 T02310171  RH  069%=      5-min Rain = 0
KMC5 261329Z 20011KT 23/17 A3011 RMK A01 T02310169  RH  068%=      5-min Rain = 0
KMC5 261330Z 20010KT 23/17 A3011 RMK A01 T02320171  RH  069%=      5-min Rain = 0
KMC5 261331Z 21011KT 23/17 A3011 RMK A01 T02320171  RH  068%=      5-min Rain = 0
KMC5 261332Z 20010KT 23/17 A3011 RMK A01 T02320169  RH  068%=      5-min Rain = 0
KMC5 261333Z 21011KT 23/17 A3011 RMK A01 T02320170  RH  068%=      5-min Rain = 0
KMC5 261334Z 20010KT 23/17 A3011 RMK A01 T02320169  RH  068%=      5-min Rain = 0
KMC5 261335Z 21011KT 23/17 A3011 RMK A01 T02320171  RH  068%=      5-min Rain = 0
KMC5 261336Z 20011KT 23/17 A3011 RMK A01 T02320171  RH  068%=      5-min Rain = 0
KMC5 261337Z 20012KT 23/17 A3011 RMK A01 T02320169  RH  067%=      5-min Rain = 0
KMC5 261338Z 21011KT 23/17 A3011 RMK A01 T02320169  RH  067%=      5-min Rain = 0
KMC5 261339Z 21012KT 23/17 A3011 RMK A01 T02320170  RH  068%=      5-min Rain = 0
KMC5 261340Z 20012KT 23/17 A3011 RMK A01 T02320170  RH  068%=      5-min Rain = 0
KMC5 261341Z 20011KT 23/17 A3011 RMK A01 T02320170  RH  068%=      5-min Rain = 0
KMC5 261342Z 21009KT 23/17 A3011 RMK A01 T02330171  RH  068%=      5-min Rain = 0
KMC5 261343Z 21009KT 23/17 A3011 RMK A01 T02330173  RH  069%=      5-min Rain = 0
KMC5 261344Z 21009KT 23/17 A3011 RMK A01 T02340174  RH  069%=      5-min Rain = 0
KMC5 261345Z 21010KT 24/17 A3011 RMK A01 T02350172  RH  068%=      5-min Rain = 0
KMC5 261346Z 20012KT 24/17 A3011 RMK A01 T02350172  RH  068%=      5-min Rain = 0
KMC5 261347Z 20013KT 24/17 A3011 RMK A01 T02350170  RH  067%=      5-min Rain = 0
KMC5 261348Z 20012KT 24/17 A3012 RMK A01 T02350170  RH  067%=      5-min Rain = 0
KMC5 261349Z 20013KT 23/17 A3012 RMK A01 T02340170  RH  067%=      5-min Rain = 0
KMC5 261350Z 20013KT 23/17 A3012 RMK A01 T02340169  RH  067%=      5-min Rain = 0
KMC5 261351Z 19014KT 23/17 A3012 RMK A01 T02340169  RH  067%=      5-min Rain = 0
KMC5 261352Z 21015KT 23/17 A3012 RMK A01 T02330168  RH  067%=      5-min Rain = 0
KMC5 261353Z 21013KT 23/17 A3012 RMK A01 T02330169  RH  067%=      5-min Rain = 0
KMC5 261354Z 20010KT 23/17 A3012 RMK A01 T02330171  RH  068%=      5-min Rain = 0
KMC5 261355Z 20010KT 23/17 A3012 RMK A01 T02340173  RH  069%=      5-min Rain = 0
KMC5 261356Z 20011KT 24/17 A3012 RMK A01 T02360173  RH  068%=      5-min Rain = 0
KMC5 261357Z 20013KT 24/17 A3012 RMK A01 T02370171  RH  067%=      5-min Rain = 0
KMC5 261358Z 20013KT 24/17 A3012 RMK A01 T02360171  RH  067%=      5-min Rain = 0
KMC5 261359Z 20013KT 24/17 A3012 RMK A01 T02360171  RH  067%=      5-min Rain = 0
KMC5 261400Z 20011KT 24/17 A3012 RMK A01 T02350172  RH  068%=      5-min Rain = 0
KMC5 261401Z 20008KT 24/17 A3012 RMK A01 T02360174  RH  068%=      5-min Rain = 0
KMC5 261402Z 21009KT 24/17 A3012 RMK A01 T02360174  RH  068%=      5-min Rain = 0
KMC5 261403Z 20011KT 24/18 A3013 RMK A01 T02380176  RH  068%=      5-min Rain = 0
KMC5 261404Z 20012KT 24/17 A3012 RMK A01 T02380172  RH  066%=      5-min Rain = 0
KMC5 261405Z 20013KT 24/17 A3013 RMK A01 T02370172  RH  067%=      5-min Rain = 0
KMC5 261406Z 20011KT 24/17 A3013 RMK A01 T02370172  RH  067%=      5-min Rain = 0
KMC5 261407Z 21010KT 24/18 A3013 RMK A01 T02370175  RH  068%=      5-min Rain = 0
KMC5 261408Z 21011KT 24/17 A3013 RMK A01 T02380173  RH  067%=      5-min Rain = 0
KMC5 261409Z 19011KT 24/17 A3013 RMK A01 T02380173  RH  067%=      5-min Rain = 0
KMC5 261410Z 20010KT 24/17 A3013 RMK A01 T02380173  RH  067%=      5-min Rain = 0
KMC5 261411Z 21011G16KT 24/17 A3013 RMK A01 T02380174  RH  067%=      5-min Rain = 0
KMC5 261412Z 22014KT 24/17 A3013 RMK A01 T02380172  RH  066%=      5-min Rain = 0
KMC5 261413Z 21010KT 24/17 A3013 RMK A01 T02390171  RH  066%=      5-min Rain = 0
KMC5 261414Z 19012KT 24/17 A3013 RMK A01 T02380173  RH  067%=      5-min Rain = 0
KMC5 261415Z 20012KT 24/17 A3013 RMK A01 T02390174  RH  067%=      5-min Rain = 0
KMC5 261416Z 21012KT 24/17 A3013 RMK A01 T02390171  RH  066%=      5-min Rain = 0
KMC5 261417Z 20010KT 24/18 A3013 RMK A01 T02390176  RH  068%=      5-min Rain = 0
KMC5 261418Z 21010KT 24/17 A3014 RMK A01 T02400174  RH  066%=      5-min Rain = 0
KMC5 261419Z 21009KT 24/18 A3014 RMK A01 T02400176  RH  067%=      5-min Rain = 0
KMC5 261420Z 19009KT 24/18 A3014 RMK A01 T02410177  RH  067%=      5-min Rain = 0
KMC5 261421Z 19012KT 24/18 A3014 RMK A01 T02420175  RH  066%=      5-min Rain = 0
KMC5 261422Z 21011KT 24/18 A3014 RMK A01 T02420175  RH  066%=      5-min Rain = 0
KMC5 261423Z 21009KT 24/18 A3014 RMK A01 T02410176  RH  067%=      5-min Rain = 0
KMC5 261424Z 20010KT 24/18 A3014 RMK A01 T02420176  RH  066%=      5-min Rain = 0
KMC5 261425Z 20008KT 24/18 A3014 RMK A01 T02420176  RH  067%=      5-min Rain = 0
KMC5 261426Z 20010KT 24/18 A3014 RMK A01 T02420176  RH  066%=      5-min Rain = 0
KMC5 261427Z 21011KT 24/17 A3014 RMK A01 T02420174  RH  066%=      5-min Rain = 0
KMC5 261428Z 20009KT 24/18 A3014 RMK A01 T02410175  RH  066%=      5-min Rain = 0
KMC5 261429Z 20009KT 24/18 A3014 RMK A01 T02410177  RH  067%=      5-min Rain = 0
KMC5 261430Z 20011KT 24/18 A3014 RMK A01 T02430178  RH  067%=      5-min Rain = 0
KMC5 261431Z 19012KT 24/18 A3014 RMK A01 T02440176  RH  066%=      5-min Rain = 0
KMC5 261432Z 20014KT 24/17 A3014 RMK A01 T02440174  RH  065%=      5-min Rain = 0
KMC5 261433Z 21010KT 24/17 A3014 RMK A01 T02420174  RH  066%=      5-min Rain = 0
KMC5 261434Z 21011KT 24/18 A3014 RMK A01 T02420176  RH  066%=      5-min Rain = 0
KMC5 261435Z 21008KT 24/18 A3014 RMK A01 T02420176  RH  067%=      5-min Rain = 0
KMC5 261436Z 21012KT 24/18 A3014 RMK A01 T02430179  RH  067%=      5-min Rain = 0
KMC5 261437Z 21013KT 24/17 A3014 RMK A01 T02440174  RH  065%=      5-min Rain = 0
KMC5 261438Z 20013KT 24/17 A3014 RMK A01 T02440173  RH  065%=      5-min Rain = 0
KMC5 261439Z 20013KT 24/18 A3014 RMK A01 T02430175  RH  066%=      5-min Rain = 0
KMC5 261440Z 21012KT 24/17 A3014 RMK A01 T02430174  RH  065%=      5-min Rain = 0
KMC5 261441Z 21012KT 24/18 A3014 RMK A01 T02430176  RH  066%=      5-min Rain = 0
KMC5 261442Z 20010KT 24/18 A3014 RMK A01 T02440175  RH  065%=      5-min Rain = 0
KMC5 261443Z 20010KT 24/18 A3015 RMK A01 T02440176  RH  066%=      5-min Rain = 0
KMC5 261444Z 20011KT 24/18 A3015 RMK A01 T02440178  RH  067%=      5-min Rain = 0
KMC5 261445Z 20012KT 25/18 A3015 RMK A01 T02450176  RH  065%=      5-min Rain = 0
KMC5 261446Z 21012KT 25/18 A3015 RMK A01 T02460175  RH  065%=      5-min Rain = 0
KMC5 261447Z 21012KT 25/18 A3015 RMK A01 T02460176  RH  065%=      5-min Rain = 0
KMC5 261448Z 22012KT 25/17 A3015 RMK A01 T02460172  RH  063%=      5-min Rain = 0
KMC5 261449Z 22011KT 25/18 A3015 RMK A01 T02460175  RH  064%=      5-min Rain = 0
KMC5 261450Z 22010KT 25/17 A3015 RMK A01 T02460174  RH  064%=      5-min Rain = 0
KMC5 261451Z 22010KT 25/17 A3015 RMK A01 T02460174  RH  064%=      5-min Rain = 0
KMC5 261452Z 22008KT 25/18 A3015 RMK A01 T02450177  RH  066%=      5-min Rain = 0
KMC5 261453Z 22009KT 25/18 A3015 RMK A01 T02450176  RH  065%=      5-min Rain = 0
KMC5 261454Z 20008KT 24/18 A3015 RMK A01 T02440177  RH  066%=      5-min Rain = 0
KMC5 261455Z 19009KT 24/18 A3015 RMK A01 T02440176  RH  066%=      5-min Rain = 0
KMC5 261456Z 20008KT 24/18 A3015 RMK A01 T02430176  RH  066%=      5-min Rain = 0
KMC5 261457Z 19008KT 24/18 A3016 RMK A01 T02420175  RH  066%=      5-min Rain = 0
KMC5 261458Z 19008KT 24/17 A3016 RMK A01 T02420174  RH  066%=      5-min Rain = 0
KMC5 261459Z 21009KT 24/18 A3016 RMK A01 T02430179  RH  067%=      5-min Rain = 0
KMC5 261500Z 20007KT 25/18 A3016 RMK A01 T02450180  RH  067%=      5-min Rain = 0
KMC5 261501Z 21008KT 25/18 A3016 RMK A01 T02460178  RH  066%=      5-min Rain = 0
KMC5 261502Z 21008KT 25/18 A3016 RMK A01 T02460178  RH  066%=      5-min Rain = 0
KMC5 261503Z 22007KT 25/18 A3016 RMK A01 T02460177  RH  065%=      5-min Rain = 0
KMC5 261504Z 22007KT 25/18 A3016 RMK A01 T02460177  RH  065%=      5-min Rain = 0
KMC5 261505Z 22007KT 25/18 A3016 RMK A01 T02460178  RH  066%=      5-min Rain = 0
KMC5 261506Z 21008KT 25/18 A3016 RMK A01 T02460181  RH  067%=      5-min Rain = 0
KMC5 261507Z 20009KT 25/18 A3016 RMK A01 T02470177  RH  065%=      5-min Rain = 0
KMC5 261508Z 19008KT 25/18 A3016 RMK A01 T02470178  RH  066%=      5-min Rain = 0
KMC5 261509Z 20008KT 25/18 A3016 RMK A01 T02480180  RH  066%=      5-min Rain = 0
KMC5 261510Z 21008KT 25/18 A3016 RMK A01 T02490180  RH  065%=      5-min Rain = 0
KMC5 261511Z 22008KT 25/18 A3016 RMK A01 T02500176  RH  063%=      5-min Rain = 0
KMC5 261512Z 21008KT 25/18 A3016 RMK A01 T02510180  RH  065%=      5-min Rain = 0
KMC5 261513Z 20008KT 25/18 A3016 RMK A01 T02530178  RH  063%=      5-min Rain = 0
KMC5 261514Z 21009KT 25/18 A3016 RMK A01 T02530177  RH  062%=      5-min Rain = 0
KMC5 261515Z 20011KT 25/18 A3016 RMK A01 T02540179  RH  063%=      5-min Rain = 0
KMC5 261516Z 19010KT 25/18 A3016 RMK A01 T02520176  RH  063%=      5-min Rain = 0
KMC5 261517Z 18008KT 25/18 A3016 RMK A01 T02480176  RH  064%=      5-min Rain = 0
KMC5 261518Z 18008KT 25/18 A3016 RMK A01 T02470179  RH  066%=      5-min Rain = 0
KMC5 261519Z 18008KT 25/18 A3016 RMK A01 T02450176  RH  065%=      5-min Rain = 0
KMC5 261520Z 18007KT 24/18 A3016 RMK A01 T02440176  RH  066%=      5-min Rain = 0
KMC5 261521Z 18008KT 25/18 A3016 RMK A01 T02450177  RH  066%=      5-min Rain = 0
KMC5 261522Z 18008KT 25/18 A3016 RMK A01 T02450178  RH  066%=      5-min Rain = 0
KMC5 261523Z 19007KT 24/18 A3016 RMK A01 T02440177  RH  066%=      5-min Rain = 0
KMC5 261524Z 19007KT 24/18 A3016 RMK A01 T02430177  RH  066%=      5-min Rain = 0
KMC5 261525Z 20007KT 24/18 A3016 RMK A01 T02430179  RH  068%=      5-min Rain = 0
KMC5 261526Z 20008KT 24/18 A3016 RMK A01 T02430178  RH  067%=      5-min Rain = 0
KMC5 261527Z 19008KT 24/18 A3016 RMK A01 T02430176  RH  066%=      5-min Rain = 0
KMC5 261528Z 20008KT 25/18 A3016 RMK A01 T02450177  RH  066%=      5-min Rain = 0
KMC5 261529Z 21007KT 25/18 A3016 RMK A01 T02470181  RH  067%=      5-min Rain = 0
KMC5 261530Z 21007KT 25/19 A3016 RMK A01 T02510185  RH  067%=      5-min Rain = 0
KMC5 261531Z 20008KT 25/18 A3016 RMK A01 T02540179  RH  063%=      5-min Rain = 0
KMC5 261532Z 20008KT 26/18 A3016 RMK A01 T02550179  RH  063%=      5-min Rain = 0
KMC5 261533Z 19008KT 25/18 A3016 RMK A01 T02540182  RH  064%=      5-min Rain = 0
KMC5 261534Z 20007KT 26/19 A3016 RMK A01 T02570190  RH  066%=      5-min Rain = 0
KMC5 261535Z 20008KT 26/19 A3016 RMK A01 T02600185  RH  063%=      5-min Rain = 0
KMC5 261536Z 20009KT 26/18 A3016 RMK A01 T02610181  RH  061%=      5-min Rain = 0
KMC5 261537Z 21009KT 26/18 A3016 RMK A01 T02580180  RH  062%=      5-min Rain = 0
KMC5 261538Z 20009KT 26/18 A3016 RMK A01 T02580178  RH  062%=      5-min Rain = 0
KMC5 261539Z 21008KT 26/18 A3016 RMK A01 T02570179  RH  062%=      5-min Rain = 0
KMC5 261540Z 21010KT 26/18 A3016 RMK A01 T02580184  RH  064%=      5-min Rain = 0
KMC5 261541Z 20008KT 26/18 A3016 RMK A01 T02590182  RH  063%=      5-min Rain = 0
KMC5 261542Z 20010KT 26/18 A3016 RMK A01 T02600182  RH  062%=      5-min Rain = 0
KMC5 261543Z 20009KT 26/18 A3016 RMK A01 T02590181  RH  062%=      5-min Rain = 0
KMC5 261544Z 19010KT 26/18 A3016 RMK A01 T02580177  RH  061%=      5-min Rain = 0
KMC5 261545Z 19009KT 26/18 A3016 RMK A01 T02570177  RH  061%=      5-min Rain = 0
KMC5 261546Z 19009KT 26/18 A3016 RMK A01 T02570181  RH  063%=      5-min Rain = 0
KMC5 261547Z 18011KT 26/18 A3016 RMK A01 T02590182  RH  063%=      5-min Rain = 0
KMC5 261548Z 20011KT 26/18 A3016 RMK A01 T02610183  RH  062%=      5-min Rain = 0
KMC5 261549Z 19012KT 26/18 A3016 RMK A01 T02620178  RH  060%=      5-min Rain = 0
KMC5 261550Z 20011KT 26/18 A3016 RMK A01 T02610178  RH  060%=      5-min Rain = 0
KMC5 261551Z 21010KT 26/18 A3016 RMK A01 T02610180  RH  061%=      5-min Rain = 0
KMC5 261552Z 20011KT 26/18 A3016 RMK A01 T02610179  RH  061%=      5-min Rain = 0
KMC5 261553Z 20011KT 26/18 A3016 RMK A01 T02630182  RH  061%=      5-min Rain = 0
KMC5 261554Z 19013KT 27/18 A3016 RMK A01 T02650180  RH  060%=      5-min Rain = 0
KMC5 261555Z 20010KT 26/18 A3016 RMK A01 T02640179  RH  060%=      5-min Rain = 0
KMC5 261556Z 20012KT 26/18 A3016 RMK A01 T02630181  RH  060%=      5-min Rain = 0
KMC5 261557Z 20009KT 26/18 A3016 RMK A01 T02620182  RH  061%=      5-min Rain = 0
KMC5 261558Z 21010KT 26/18 A3016 RMK A01 T02610181  RH  061%=      5-min Rain = 0
KMC5 261559Z 22007KT 26/19 A3016 RMK A01 T02600186  RH  064%=      5-min Rain = 0
KMC5 261600Z 22008KT 26/18 A3016 RMK A01 T02600182  RH  062%=      5-min Rain = 0
KMC5 261601Z 21007KT 26/18 A3016 RMK A01 T02580182  RH  063%=      5-min Rain = 0
KMC5 261602Z 21006KT 26/18 A3016 RMK A01 T02570184  RH  064%=      5-min Rain = 0
KMC5 261603Z 21008KT 26/19 A3016 RMK A01 T02560185  RH  065%=      5-min Rain = 0
KMC5 261604Z 21008KT 26/18 A3016 RMK A01 T02560180  RH  063%=      5-min Rain = 0
KMC5 261605Z 21008KT 25/18 A3016 RMK A01 T02540179  RH  063%=      5-min Rain = 0
KMC5 261606Z 21008KT 25/18 A3016 RMK A01 T02530179  RH  064%=      5-min Rain = 0
KMC5 261607Z 20007KT 25/18 A3016 RMK A01 T02520178  RH  064%=      5-min Rain = 0
KMC5 261608Z 19007KT 25/18 A3016 RMK A01 T02510179  RH  064%=      5-min Rain = 0
KMC5 261609Z 20008KT 25/18 A3016 RMK A01 T02510182  RH  066%=      5-min Rain = 0
KMC5 261610Z 21008KT 25/18 A3016 RMK A01 T02510182  RH  065%=      5-min Rain = 0
KMC5 261611Z 22008KT 25/18 A3016 RMK A01 T02510179  RH  065%=      5-min Rain = 0
KMC5 261612Z 21006KT 25/18 A3016 RMK A01 T02500181  RH  065%=      5-min Rain = 0
KMC5 261613Z 20009KT 25/18 A3016 RMK A01 T02500177  RH  064%=      5-min Rain = 0
KMC5 261614Z 21011KT 25/17 A3016 RMK A01 T02500174  RH  062%=      5-min Rain = 0
KMC5 261615Z 22011KT 25/17 A3016 RMK A01 T02510172  RH  062%=      5-min Rain = 0
KMC5 261616Z 22010KT 25/17 A3016 RMK A01 T02510173  RH  062%=      5-min Rain = 0
KMC5 261617Z 22009KT 25/18 A3016 RMK A01 T02500175  RH  063%=      5-min Rain = 0
KMC5 261618Z 21010KT 25/18 A3016 RMK A01 T02500176  RH  064%=      5-min Rain = 0
KMC5 261619Z 21007KT 25/18 A3016 RMK A01 T02490177  RH  064%=      5-min Rain = 0
KMC5 261620Z 21008KT 25/18 A3016 RMK A01 T02490179  RH  065%=      5-min Rain = 0
KMC5 261621Z 20010KT 25/18 A3016 RMK A01 T02490176  RH  064%=      5-min Rain = 0
KMC5 261622Z 20008KT 25/18 A3016 RMK A01 T02490177  RH  064%=      5-min Rain = 0
KMC5 261623Z 20008KT 25/18 A3016 RMK A01 T02490180  RH  066%=      5-min Rain = 0
KMC5 261624Z 21009KT 25/18 A3016 RMK A01 T02490180  RH  066%=      5-min Rain = 0
KMC5 261625Z 21009KT 25/18 A3016 RMK A01 T02480175  RH  064%=      5-min Rain = 0
KMC5 261626Z 21009KT 25/18 A3016 RMK A01 T02480177  RH  065%=      5-min Rain = 0
KMC5 261627Z 21009KT 25/18 A3016 RMK A01 T02480176  RH  064%=      5-min Rain = 0
KMC5 261628Z 19009KT 25/18 A3016 RMK A01 T02480175  RH  064%=      5-min Rain = 0
KMC5 261629Z 20009KT 25/18 A3016 RMK A01 T02480177  RH  065%=      5-min Rain = 0
KMC5 261630Z 21009KT 25/18 A3016 RMK A01 T02480177  RH  065%=      5-min Rain = 0
KMC5 261631Z 19008KT 25/18 A3016 RMK A01 T02480177  RH  065%=      5-min Rain = 0
KMC5 261632Z 19010KT 25/18 A3015 RMK A01 T02480176  RH  064%=      5-min Rain = 0
KMC5 261633Z 20010KT 25/17 A3015 RMK A01 T02480174  RH  063%=      5-min Rain = 0
KMC5 261634Z 20009KT 25/18 A3015 RMK A01 T02490176  RH  064%=      5-min Rain = 0
KMC5 261635Z 19010KT 25/18 A3015 RMK A01 T02490177  RH  064%=      5-min Rain = 0
KMC5 261636Z 20010KT 25/17 A3015 RMK A01 T02490173  RH  063%=      5-min Rain = 0
KMC5 261637Z 19011KT 25/17 A3015 RMK A01 T02490172  RH  062%=      5-min Rain = 0
KMC5 261638Z 20011KT 25/17 A3015 RMK A01 T02510173  RH  062%=      5-min Rain = 0
KMC5 261639Z 20012KT 25/17 A3015 RMK A01 T02540174  RH  061%=      5-min Rain = 0
KMC5 261640Z 20011G16KT 26/18 A3015 RMK A01 T02580175  RH  060%=      5-min Rain = 0
KMC5 261641Z 20014KT 26/17 A3015 RMK A01 T02620174  RH  058%=      5-min Rain = 0
KMC5 261642Z 21014KT 26/17 A3015 RMK A01 T02640172  RH  057%=      5-min Rain = 0
KMC5 261643Z 21015KT 26/17 A3015 RMK A01 T02640171  RH  057%=      5-min Rain = 0
KMC5 261644Z 20015KT 27/17 A3015 RMK A01 T02650169  RH  056%=      5-min Rain = 0
KMC5 261645Z 21013KT 27/17 A3015 RMK A01 T02650171  RH  056%=      5-min Rain = 0
KMC5 261646Z 20012KT 27/18 A3015 RMK A01 T02660175  RH  057%=      5-min Rain = 0
KMC5 261647Z 21014KT 27/18 A3015 RMK A01 T02690180  RH  058%=      5-min Rain = 0
KMC5 261648Z 21013KT 27/17 A3015 RMK A01 T02710173  RH  055%=      5-min Rain = 0
KMC5 261649Z 20013KT 27/18 A3015 RMK A01 T02710178  RH  057%=      5-min Rain = 0
KMC5 261650Z 20013KT 27/18 A3015 RMK A01 T02710180  RH  058%=      5-min Rain = 0
KMC5 261651Z 19014KT 27/18 A3015 RMK A01 T02720179  RH  057%=      5-min Rain = 0
KMC5 261652Z 20012KT 27/18 A3015 RMK A01 T02710180  RH  057%=      5-min Rain = 0
KMC5 261653Z 21011KT 27/18 A3015 RMK A01 T02710178  RH  057%=      5-min Rain = 0
KMC5 261654Z 20012KT 27/18 A3015 RMK A01 T02710181  RH  058%=      5-min Rain = 0
KMC5 261655Z 20011KT 27/18 A3015 RMK A01 T02730182  RH  057%=      5-min Rain = 0
KMC5 261656Z 19012KT 27/18 A3015 RMK A01 T02730183  RH  058%=      5-min Rain = 0
KMC5 261657Z 19013KT 27/19 A3015 RMK A01 T02730185  RH  059%=      5-min Rain = 0
KMC5 261658Z 18011KT 27/19 A3015 RMK A01 T02710185  RH  059%=      5-min Rain = 0
KMC5 261659Z 18012KT 27/18 A3015 RMK A01 T02710184  RH  059%=      5-min Rain = 0
KMC5 261700Z 18012KT 27/18 A3015 RMK A01 T02710184  RH  059%=      5-min Rain = 0
KMC5 261701Z 17012KT 27/19 A3015 RMK A01 T02710185  RH  059%=      5-min Rain = 0
KMC5 261702Z 18011KT 27/18 A3015 RMK A01 T02710184  RH  059%=      5-min Rain = 0
KMC5 261703Z 19013KT 27/18 A3015 RMK A01 T02710182  RH  058%=      5-min Rain = 0
KMC5 261704Z 20012KT 27/19 A3015 RMK A01 T02720187  RH  060%=      5-min Rain = 0
KMC5 261705Z 20012KT 27/18 A3015 RMK A01 T02740183  RH  057%=      5-min Rain = 0
KMC5 261706Z 20017KT 28/18 A3015 RMK A01 T02750182  RH  057%=      5-min Rain = 0
KMC5 261707Z 20014KT 28/18 A3015 RMK A01 T02750179  RH  056%=      5-min Rain = 0
KMC5 261708Z 20011KT 27/18 A3015 RMK A01 T02740183  RH  058%=      5-min Rain = 0
KMC5 261709Z 20011KT 28/19 A3015 RMK A01 T02750185  RH  058%=      5-min Rain = 0
KMC5 261710Z 19013KT 28/19 A3015 RMK A01 T02760186  RH  058%=      5-min Rain = 0
KMC5 261711Z 19018KT 28/18 A3015 RMK A01 T02770178  RH  055%=      5-min Rain = 0
KMC5 261712Z 19014KT 28/18 A3015 RMK A01 T02760176  RH  055%=      5-min Rain = 0
KMC5 261713Z 19014KT 28/18 A3015 RMK A01 T02750178  RH  055%=      5-min Rain = 0
KMC5 261714Z 21012KT 28/18 A3014 RMK A01 T02750184  RH  058%=      5-min Rain = 0
KMC5 261715Z 19015KT 28/19 A3014 RMK A01 T02800187  RH  057%=      5-min Rain = 0
KMC5 261716Z 19017KT 28/18 A3014 RMK A01 T02810180  RH  054%=      5-min Rain = 0
KMC5 261717Z 21013KT 28/18 A3014 RMK A01 T02800180  RH  054%=      5-min Rain = 0
KMC5 261718Z 20014KT 28/18 A3014 RMK A01 T02790175  RH  053%=      5-min Rain = 0
KMC5 261719Z 19015KT 28/18 A3014 RMK A01 T02780178  RH  054%=      5-min Rain = 0
KMC5 261720Z 19015KT 28/18 A3014 RMK A01 T02780177  RH  054%=      5-min Rain = 0
KMC5 261721Z 19015KT 28/17 A3014 RMK A01 T02780174  RH  053%=      5-min Rain = 0
KMC5 261722Z 20015KT 28/18 A3014 RMK A01 T02770176  RH  054%=      5-min Rain = 0
KMC5 261723Z 22015KT 28/18 A3014 RMK A01 T02790178  RH  054%=      5-min Rain = 0
KMC5 261724Z 22014KT 28/18 A3014 RMK A01 T02800176  RH  053%=      5-min Rain = 0
KMC5 261725Z 21016KT 28/18 A3014 RMK A01 T02800176  RH  053%=      5-min Rain = 0
KMC5 261726Z 19014KT 28/18 A3014 RMK A01 T02810179  RH  054%=      5-min Rain = 0
KMC5 261727Z 19015G21KT 28/18 A3014 RMK A01 T02810177  RH  053%=      5-min Rain = 0
KMC5 261728Z 19017KT 28/18 A3014 RMK A01 T02820177  RH  053%=      5-min Rain = 0
KMC5 261729Z 20013KT 28/18 A3014 RMK A01 T02820178  RH  053%=      5-min Rain = 0
KMC5 261730Z 20015KT 28/17 A3014 RMK A01 T02840171  RH  050%=      5-min Rain = 0
KMC5 261731Z 21016KT 28/17 A3014 RMK A01 T02830170  RH  051%=      5-min Rain = 0
KMC5 261732Z 21019KT 28/17 A3014 RMK A01 T02810171  RH  051%=      5-min Rain = 0
KMC5 261733Z 20016KT 28/18 A3014 RMK A01 T02810175  RH  053%=      5-min Rain = 0
KMC5 261734Z 20015KT 28/18 A3014 RMK A01 T02810177  RH  053%=      5-min Rain = 0
KMC5 261735Z 20013KT 28/18 A3014 RMK A01 T02830177  RH  053%=      5-min Rain = 0
KMC5 261736Z 19016KT 28/18 A3014 RMK A01 T02830180  RH  054%=      5-min Rain = 0
KMC5 261737Z 19016KT 28/18 A3014 RMK A01 T02830178  RH  053%=      5-min Rain = 0
KMC5 261738Z 18015KT 28/18 A3014 RMK A01 T02830180  RH  054%=      5-min Rain = 0
KMC5 261739Z 20013KT 28/18 A3014 RMK A01 T02830181  RH  054%=      5-min Rain = 0
KMC5 261740Z 20015KT 29/18 A3014 RMK A01 T02860181  RH  053%=      5-min Rain = 0
KMC5 261741Z 20017KT 29/18 A3014 RMK A01 T02880176  RH  051%=      5-min Rain = 0
KMC5 261742Z 20013KT 29/18 A3014 RMK A01 T02860175  RH  051%=      5-min Rain = 0
KMC5 261743Z 19010KT 29/18 A3014 RMK A01 T02850179  RH  053%=      5-min Rain = 0
KMC5 261744Z 18013KT 29/18 A3014 RMK A01 T02870182  RH  053%=      5-min Rain = 0
KMC5 261745Z 18015KT 29/18 A3014 RMK A01 T02880176  RH  051%=      5-min Rain = 0
KMC5 261746Z 18014KT 29/18 A3014 RMK A01 T02880179  RH  052%=      5-min Rain = 0
KMC5 261747Z 19018KT 29/18 A3014 RMK A01 T02890175  RH  050%=      5-min Rain = 0
KMC5 261748Z 19017KT 29/17 A3014 RMK A01 T02890171  RH  049%=      5-min Rain = 0
KMC5 261749Z 18018KT 29/17 A3014 RMK A01 T02880173  RH  050%=      5-min Rain = 0
KMC5 261750Z 18015KT 29/17 A3014 RMK A01 T02860173  RH  050%=      5-min Rain = 0
KMC5 261751Z 19017KT 28/17 A3014 RMK A01 T02840174  RH  051%=      5-min Rain = 0
KMC5 261752Z 19017KT 28/17 A3014 RMK A01 T02840173  RH  051%=      5-min Rain = 0
KMC5 261753Z 19014KT 29/18 A3014 RMK A01 T02850177  RH  052%=      5-min Rain = 0
KMC5 261754Z 18012KT 29/18 A3014 RMK A01 T02860181  RH  053%=      5-min Rain = 0
KMC5 261755Z 19012KT 29/19 A3014 RMK A01 T02870185  RH  054%=      5-min Rain = 0
KMC5 261756Z 19012KT 29/18 A3014 RMK A01 T02880183  RH  053%=      5-min Rain = 0
KMC5 261757Z 18011KT 29/19 A3014 RMK A01 T02880186  RH  054%=      5-min Rain = 0
KMC5 261758Z 20011KT 29/19 A3014 RMK A01 T02880185  RH  054%=      5-min Rain = 0
KMC5 261759Z 19009KT 29/18 A3014 RMK A01 T02880179  RH  052%=      5-min Rain = 0
KMC5 261800Z 16012KT 29/18 A3014 RMK A01 T02870179  RH  052%=      5-min Rain = 0
KMC5 261801Z 17011KT 29/18 A3014 RMK A01 T02870182  RH  053%=      5-min Rain = 0
KMC5 261802Z 19013KT 29/18 A3014 RMK A01 T02880179  RH  052%=      5-min Rain = 0
KMC5 261803Z 17015KT 29/18 A3014 RMK A01 T02880178  RH  051%=      5-min Rain = 0
KMC5 261804Z 17017G23KT 29/17 A3014 RMK A01 T02880173  RH  050%=      5-min Rain = 0
KMC5 261805Z 16018KT 29/18 A3014 RMK A01 T02880176  RH  050%=      5-min Rain = 0
KMC5 261806Z 17017KT 29/17 A3014 RMK A01 T02880174  RH  050%=      5-min Rain = 0
KMC5 261807Z 17012G17KT 29/18 A3014 RMK A01 T02880175  RH  050%=      5-min Rain = 0
KMC5 261808Z 20011KT 29/18 A3015 RMK A01 T02880183  RH  053%=      5-min Rain = 0
KMC5 261809Z 21011KT 29/18 A3015 RMK A01 T02900181  RH  052%=      5-min Rain = 0
KMC5 261810Z 20010KT 29/18 A3015 RMK A01 T02910184  RH  052%=      5-min Rain = 0
KMC5 261811Z 18013KT 29/19 A3014 RMK A01 T02930186  RH  052%=      5-min Rain = 0
KMC5 261812Z 18015KT 30/18 A3015 RMK A01 T02950178  RH  049%=      5-min Rain = 0
KMC5 261813Z 19015KT 29/18 A3015 RMK A01 T02920175  RH  049%=      5-min Rain = 0
KMC5 261814Z 20013KT 29/18 A3015 RMK A01 T02890177  RH  051%=      5-min Rain = 0
KMC5 261815Z 18014KT 29/18 A3015 RMK A01 T02880180  RH  052%=      5-min Rain = 0
KMC5 261816Z 18012KT 29/19 A3015 RMK A01 T02890187  RH  054%=      5-min Rain = 0
KMC5 261817Z 18010KT 29/18 A3015 RMK A01 T02900184  RH  053%=      5-min Rain = 0
KMC5 261818Z 17009KT 29/19 A3015 RMK A01 T02900188  RH  054%=      5-min Rain = 0
KMC5 261819Z 17016KT 29/19 A3015 RMK A01 T02910186  RH  053%=      5-min Rain = 0
KMC5 261820Z 17014KT 29/19 A3015 RMK A01 T02890185  RH  053%=      5-min Rain = 0
KMC5 261821Z 15014KT 29/18 A3015 RMK A01 T02880183  RH  053%=      5-min Rain = 0
KMC5 261822Z 15017KT 29/18 A3014 RMK A01 T02880184  RH  053%=      5-min Rain = 0
KMC5 261823Z 18017G22KT 29/18 A3014 RMK A01 T02900183  RH  053%=      5-min Rain = 0
KMC5 261824Z 19014KT 29/18 A3014 RMK A01 T02900180  RH  051%=      5-min Rain = 0
KMC5 261825Z 19016KT 29/18 A3014 RMK A01 T02900181  RH  052%=      5-min Rain = 0
KMC5 261826Z 19013KT 29/18 A3014 RMK A01 T02900181  RH  052%=      5-min Rain = 0
KMC5 261827Z 21014KT 29/18 A3014 RMK A01 T02910184  RH  053%=      5-min Rain = 0
KMC5 261828Z 20015KT 29/18 A3014 RMK A01 T02920184  RH  052%=      5-min Rain = 0
KMC5 261829Z 20014KT 29/18 A3014 RMK A01 T02920183  RH  052%=      5-min Rain = 0
KMC5 261830Z 20012KT 29/19 A3014 RMK A01 T02900186  RH  053%=      5-min Rain = 0
KMC5 261831Z 18012KT 29/19 A3014 RMK A01 T02910191  RH  055%=      5-min Rain = 0
KMC5 261832Z 17016KT 29/18 A3014 RMK A01 T02930178  RH  050%=      5-min Rain = 0
KMC5 261833Z 16014KT 29/18 A3014 RMK A01 T02920179  RH  051%=      5-min Rain = 0
KMC5 261834Z 16015KT 29/18 A3014 RMK A01 T02920181  RH  051%=      5-min Rain = 0
KMC5 261835Z 17013KT 29/18 A3014 RMK A01 T02920181  RH  051%=      5-min Rain = 0
KMC5 261836Z 17011KT 29/19 A3014 RMK A01 T02900186  RH  053%=      5-min Rain = 0
KMC5 261837Z 18014KT 29/19 A3014 RMK A01 T02910185  RH  053%=      5-min Rain = 0
KMC5 261838Z 18013KT 29/19 A3014 RMK A01 T02940189  RH  053%=      5-min Rain = 0
KMC5 261839Z 18012KT 30/19 A3014 RMK A01 T02980189  RH  052%=      5-min Rain = 0
KMC5 261840Z 16013KT 30/18 A3014 RMK A01 T02990184  RH  050%=      5-min Rain = 0
KMC5 261841Z 18016KT 30/18 A3014 RMK A01 T02980180  RH  049%=      5-min Rain = 0
KMC5 261842Z 19017KT 30/17 A3014 RMK A01 T02960173  RH  048%=      5-min Rain = 0
KMC5 261843Z 19015KT 29/17 A3014 RMK A01 T02920174  RH  049%=      5-min Rain = 0
KMC5 261844Z 20016KT 29/17 A3014 RMK A01 T02920173  RH  049%=      5-min Rain = 0
KMC5 261845Z 19017KT 29/17 A3014 RMK A01 T02930172  RH  048%=      5-min Rain = 0
KMC5 261846Z 20018KT 29/17 A3013 RMK A01 T02930174  RH  049%=      5-min Rain = 0
KMC5 261847Z 20015G21KT 29/17 A3013 RMK A01 T02930173  RH  048%=      5-min Rain = 0
KMC5 261848Z 18016KT 29/18 A3014 RMK A01 T02940178  RH  050%=      5-min Rain = 0
KMC5 261849Z 17015KT 30/18 A3014 RMK A01 T02950181  RH  050%=      5-min Rain = 0
KMC5 261850Z 17010KT 30/19 A3014 RMK A01 T02970188  RH  052%=      5-min Rain = 0
KMC5 261851Z 16016KT 30/18 A3013 RMK A01 T02990180  RH  049%=      5-min Rain = 0
KMC5 261852Z 17016KT 30/18 A3013 RMK A01 T02980176  RH  048%=      5-min Rain = 0
KMC5 261853Z 17016KT 30/18 A3013 RMK A01 T02960182  RH  050%=      5-min Rain = 0
KMC5 261854Z 16016KT 30/18 A3013 RMK A01 T02970176  RH  048%=      5-min Rain = 0
KMC5 261855Z 17021KT 30/17 A3013 RMK A01 T02970171  RH  047%=      5-min Rain = 0
KMC5 261856Z 18015KT 30/17 A3013 RMK A01 T02960170  RH  047%=      5-min Rain = 0
KMC5 261857Z 18020KT 30/17 A3013 RMK A01 T02960169  RH  046%=      5-min Rain = 0
KMC5 261858Z 16018KT 30/17 A3013 RMK A01 T02950170  RH  047%=      5-min Rain = 0
KMC5 261859Z 16019KT 30/17 A3013 RMK A01 T02950171  RH  047%=      5-min Rain = 0
KMC5 261900Z 17017KT 30/17 A3013 RMK A01 T02960173  RH  048%=      5-min Rain = 0
KMC5 261901Z 18016KT 30/17 A3013 RMK A01 T02970171  RH  047%=      5-min Rain = 0
KMC5 261902Z 19014KT 30/17 A3013 RMK A01 T02970170  RH  046%=      5-min Rain = 0
KMC5 261903Z 19013KT 30/18 A3013 RMK A01 T02960175  RH  048%=      5-min Rain = 0
KMC5 261904Z 17015KT 30/17 A3013 RMK A01 T02970171  RH  047%=      5-min Rain = 0
KMC5 261905Z 17015KT 30/17 A3013 RMK A01 T02970173  RH  047%=      5-min Rain = 0
KMC5 261906Z 19016KT 30/18 A3013 RMK A01 T02960175  RH  048%=      5-min Rain = 0
KMC5 261907Z 19015KT 30/17 A3013 RMK A01 T02980174  RH  047%=      5-min Rain = 0
KMC5 261908Z 19018KT 30/17 A3013 RMK A01 T02990173  RH  047%=      5-min Rain = 0
KMC5 261909Z 20018KT 30/17 A3012 RMK A01 T03000168  RH  045%=      5-min Rain = 0
KMC5 261910Z 19015G21KT 30/17 A3012 RMK A01 T02990167  RH  045%=      5-min Rain = 0
KMC5 261911Z 19016KT 30/17 A3013 RMK A01 T02980171  RH  046%=      5-min Rain = 0
KMC5 261912Z 17016KT 30/18 A3013 RMK A01 T02980175  RH  047%=      5-min Rain = 0
KMC5 261913Z 16015KT 30/17 A3013 RMK A01 T03000174  RH  047%=      5-min Rain = 0
KMC5 261914Z 17017KT 30/18 A3012 RMK A01 T03000175  RH  047%=      5-min Rain = 0
KMC5 261915Z 16020KT 30/17 A3012 RMK A01 T03010172  RH  046%=      5-min Rain = 0
KMC5 261916Z 17019G24KT 30/17 A3012 RMK A01 T03000170  RH  046%=      5-min Rain = 0
KMC5 261917Z 17017KT 30/17 A3012 RMK A01 T02990171  RH  046%=      5-min Rain = 0
KMC5 261918Z 17019KT 30/17 A3012 RMK A01 T03000165  RH  044%=      5-min Rain = 0
KMC5 261919Z 17018KT 30/17 A3012 RMK A01 T03010166  RH  044%=      5-min Rain = 0
KMC5 261920Z 17019KT 30/17 A3012 RMK A01 T03010169  RH  045%=      5-min Rain = 0
KMC5 261921Z 18019KT 30/16 A3012 RMK A01 T03020162  RH  043%=      5-min Rain = 0
KMC5 261922Z 18014KT 30/16 A3012 RMK A01 T03020163  RH  043%=      5-min Rain = 0
KMC5 261923Z 18015KT 30/17 A3012 RMK A01 T03030170  RH  045%=      5-min Rain = 0
KMC5 261924Z 17014KT 30/17 A3012 RMK A01 T03030173  RH  046%=      5-min Rain = 0
KMC5 261925Z 17017KT 30/17 A3012 RMK A01 T03040169  RH  044%=      5-min Rain = 0
KMC5 261926Z 17013KT 30/18 A3012 RMK A01 T03040178  RH  047%=      5-min Rain = 0
KMC5 261927Z 18016KT 31/17 A3012 RMK A01 T03060172  RH  045%=      5-min Rain = 0
KMC5 261928Z 18018KT 31/17 A3012 RMK A01 T03060167  RH  043%=      5-min Rain = 0
KMC5 261929Z 18016KT 31/17 A3012 RMK A01 T03060167  RH  043%=      5-min Rain = 0
KMC5 261930Z 18018KT 30/17 A3012 RMK A01 T03040166  RH  043%=      5-min Rain = 0
KMC5 261931Z 17020KT 30/17 A3012 RMK A01 T03040167  RH  044%=      5-min Rain = 0
KMC5 261932Z 17017KT 30/17 A3012 RMK A01 T03040170  RH  044%=      5-min Rain = 0
KMC5 261933Z 16018KT 30/17 A3012 RMK A01 T03040166  RH  044%=      5-min Rain = 0
KMC5 261934Z 16015KT 30/17 A3012 RMK A01 T03030166  RH  044%=      5-min Rain = 0
KMC5 261935Z 17018G23KT 30/17 A3012 RMK A01 T03020166  RH  044%=      5-min Rain = 0
KMC5 261936Z 17016KT 30/17 A3012 RMK A01 T03030165  RH  044%=      5-min Rain = 0
KMC5 261937Z 18016KT 30/17 A3012 RMK A01 T03030171  RH  045%=      5-min Rain = 0
KMC5 261938Z 17015KT 31/18 A3012 RMK A01 T03050177  RH  046%=      5-min Rain = 0
KMC5 261939Z 19018KT 31/17 A3012 RMK A01 T03070171  RH  044%=      5-min Rain = 0
KMC5 261940Z 18015KT 31/17 A3012 RMK A01 T03080172  RH  044%=      5-min Rain = 0
KMC5 261941Z 19017KT 31/17 A3012 RMK A01 T03070168  RH  043%=      5-min Rain = 0
KMC5 261942Z 18020KT 31/17 A3012 RMK A01 T03070167  RH  043%=      5-min Rain = 0
KMC5 261943Z 18018KT 31/16 A3012 RMK A01 T03060162  RH  042%=      5-min Rain = 0
KMC5 261944Z 17016KT 31/17 A3012 RMK A01 T03050169  RH  044%=      5-min Rain = 0
KMC5 261945Z 17016KT 31/17 A3012 RMK A01 T03060167  RH  043%=      5-min Rain = 0
KMC5 261946Z 17017KT 31/17 A3012 RMK A01 T03060165  RH  043%=      5-min Rain = 0
KMC5 261947Z 17020KT 31/16 A3012 RMK A01 T03060164  RH  042%=      5-min Rain = 0
KMC5 261948Z 17017KT 31/16 A3012 RMK A01 T03060164  RH  042%=      5-min Rain = 0
KMC5 261949Z 17018KT 31/17 A3012 RMK A01 T03050170  RH  044%=      5-min Rain = 0
KMC5 261950Z 19017G22KT 31/17 A3012 RMK A01 T03080174  RH  045%=      5-min Rain = 0
KMC5 261951Z 18016G21KT 31/17 A3012 RMK A01 T03090168  RH  043%=      5-min Rain = 0
KMC5 261952Z 18014KT 31/17 A3012 RMK A01 T03080173  RH  044%=      5-min Rain = 0
KMC5 261953Z 18019KT 31/17 A3012 RMK A01 T03080169  RH  043%=      5-min Rain = 0
KMC5 261954Z 18019KT 31/17 A3012 RMK A01 T03070166  RH  043%=      5-min Rain = 0
KMC5 261955Z 18019KT 31/16 A3012 RMK A01 T03060164  RH  042%=      5-min Rain = 0
KMC5 261956Z 17015KT 31/17 A3012 RMK A01 T03050169  RH  044%=      5-min Rain = 0
KMC5 261957Z 17015KT 31/17 A3012 RMK A01 T03050171  RH  044%=      5-min Rain = 0
KMC5 261958Z 17013KT 31/17 A3012 RMK A01 T03050166  RH  043%=      5-min Rain = 0
KMC5 261959Z 15015KT 31/17 A3012 RMK A01 T03050169  RH  044%=      5-min Rain = 0
KMC5 262000Z 17017G24KT 31/18 A3012 RMK A01 T03070175  RH  045%=      5-min Rain = 0
KMC5 262001Z 20017G22KT 31/17 A3012 RMK A01 T03110174  RH  044%=      5-min Rain = 0
KMC5 262002Z 19017KT 31/17 A3012 RMK A01 T03110170  RH  043%=      5-min Rain = 0
KMC5 262003Z 19016KT 31/17 A3012 RMK A01 T03100170  RH  043%=      5-min Rain = 0
KMC5 262004Z 19013KT 31/17 A3012 RMK A01 T03090174  RH  044%=      5-min Rain = 0
KMC5 262005Z 19017KT 31/17 A3012 RMK A01 T03100169  RH  043%=      5-min Rain = 0
KMC5 262006Z 19020KT 31/16 A3011 RMK A01 T03110164  RH  041%=      5-min Rain = 0
KMC5 262007Z 18017KT 31/16 A3012 RMK A01 T03100162  RH  041%=      5-min Rain = 0
KMC5 262008Z 17017KT 31/16 A3012 RMK A01 T03090164  RH  042%=      5-min Rain = 0
KMC5 262009Z 17018KT 31/16 A3011 RMK A01 T03090159  RH  040%=      5-min Rain = 0
KMC5 262010Z 17019KT 31/16 A3011 RMK A01 T03080162  RH  041%=      5-min Rain = 0
KMC5 262011Z 17017KT 31/16 A3011 RMK A01 T03080161  RH  041%=      5-min Rain = 0
KMC5 262012Z 16017KT 31/16 A3011 RMK A01 T03080163  RH  042%=      5-min Rain = 0
KMC5 262013Z 17016KT 31/16 A3011 RMK A01 T03080163  RH  042%=      5-min Rain = 0
KMC5 262014Z 19017KT 31/16 A3011 RMK A01 T03090164  RH  042%=      5-min Rain = 0
KMC5 262015Z 20015KT 31/16 A3011 RMK A01 T03100160  RH  040%=      5-min Rain = 0
KMC5 262016Z 19016KT 31/16 A3011 RMK A01 T03110163  RH  041%=      5-min Rain = 0
KMC5 262017Z 18021KT 31/16 A3011 RMK A01 T03110161  RH  041%=      5-min Rain = 0
KMC5 262018Z 18017KT 31/16 A3011 RMK A01 T03100161  RH  041%=      5-min Rain = 0
KMC5 262019Z 18018KT 31/17 A3011 RMK A01 T03090165  RH  042%=      5-min Rain = 0
KMC5 262020Z 18016KT 31/16 A3011 RMK A01 T03100163  RH  041%=      5-min Rain = 0
KMC5 262021Z 18016KT 31/16 A3011 RMK A01 T03100163  RH  041%=      5-min Rain = 0
KMC5 262022Z 18016KT 31/17 A3011 RMK A01 T03100166  RH  042%=      5-min Rain = 0
KMC5 262023Z 17015G21KT 31/16 A3011 RMK A01 T03100162  RH  041%=      5-min Rain = 0
KMC5 262024Z 16016G25KT 31/16 A3011 RMK A01 T03100161  RH  041%=      5-min Rain = 0
KMC5 262025Z 17020G31KT 31/17 A3011 RMK A01 T03110167  RH  042%=      5-min Rain = 0
KMC5 262026Z 17019KT 31/16 A3011 RMK A01 T03130164  RH  041%=      5-min Rain = 0
KMC5 262027Z 17016KT 31/16 A3011 RMK A01 T03110161  RH  040%=      5-min Rain = 0
KMC5 262028Z 16016G22KT 31/17 A3011 RMK A01 T03110165  RH  042%=      5-min Rain = 0
KMC5 262029Z 17019KT 31/16 A3011 RMK A01 T03110158  RH  040%=      5-min Rain = 0
KMC5 262030Z 17016KT 31/16 A3011 RMK A01 T03110160  RH  040%=      5-min Rain = 0
KMC5 262031Z 17018KT 31/16 A3011 RMK A01 T03110160  RH  040%=      5-min Rain = 0
KMC5 262032Z 18017KT 31/16 A3011 RMK A01 T03120157  RH  039%=      5-min Rain = 0
KMC5 262033Z 17013KT 31/16 A3011 RMK A01 T03110158  RH  040%=      5-min Rain = 0
KMC5 262034Z 18014KT 31/16 A3011 RMK A01 T03120161  RH  040%=      5-min Rain = 0
KMC5 262035Z 17016KT 31/16 A3011 RMK A01 T03130164  RH  041%=      5-min Rain = 0
KMC5 262036Z 17017KT 31/16 A3011 RMK A01 T03140162  RH  040%=      5-min Rain = 0
KMC5 262037Z 17015KT 31/16 A3011 RMK A01 T03140155  RH  038%=      5-min Rain = 0
KMC5 262038Z 16016KT 31/16 A301 RMK A01 T03130160  RH  040%=      5-min Rain = 0
KMC5 262039Z 17018KT 31/16 A3011 RMK A01 T03140164  RH  041%=      5-min Rain = 0
KMC5 262040Z 18020KT 32/16 A301 RMK A01 T03150157  RH  039%=      5-min Rain = 0
KMC5 262041Z 18016KT 31/16 A3011 RMK A01 T03140156  RH  039%=      5-min Rain = 0
KMC5 262042Z 17014KT 31/16 A3011 RMK A01 T03130162  RH  040%=      5-min Rain = 0
KMC5 262043Z 17018KT 31/16 A301 RMK A01 T03140159  RH  039%=      5-min Rain = 0
KMC5 262044Z 17019KT 31/16 A301 RMK A01 T03140159  RH  039%=      5-min Rain = 0
KMC5 262045Z 17019KT 31/16 A301 RMK A01 T03140160  RH  039%=      5-min Rain = 0
KMC5 262046Z 18017KT 31/16 A301 RMK A01 T03130157  RH  039%=      5-min Rain = 0
KMC5 262047Z 17016KT 31/16 A301 RMK A01 T03130157  RH  039%=      5-min Rain = 0
KMC5 262048Z 17016KT 31/16 A301 RMK A01 T03130162  RH  040%=      5-min Rain = 0
KMC5 262049Z 16014KT 31/17 A301 RMK A01 T03140165  RH  041%=      5-min Rain = 0
KMC5 262050Z 17014KT 32/17 A301 RMK A01 T03150167  RH  041%=      5-min Rain = 0
KMC5 262051Z 19011KT 32/17 A301 RMK A01 T03160166  RH  041%=      5-min Rain = 0
KMC5 262052Z 18014KT 32/17 A301 RMK A01 T03180166  RH  040%=      5-min Rain = 0
KMC5 262053Z 18016KT 32/16 A301 RMK A01 T03180163  RH  039%=      5-min Rain = 0
KMC5 262054Z 17014KT 32/16 A301 RMK A01 T03170159  RH  039%=      5-min Rain = 0
KMC5 262055Z 16016G24KT 32/16 A301 RMK A01 T03160163  RH  040%=      5-min Rain = 0
KMC5 262056Z 15015KT 32/16 A301 RMK A01 T03160159  RH  039%=      5-min Rain = 0
KMC5 262057Z 16016G21KT 32/16 A301 RMK A01 T03150162  RH  040%=      5-min Rain = 0
KMC5 262058Z 16018KT 32/16 A301 RMK A01 T03150160  RH  039%=      5-min Rain = 0
KMC5 262059Z 16018G23KT 31/16 A301 RMK A01 T03140159  RH  039%=      5-min Rain = 0
KMC5 262100Z 14021KT 31/16 A3009 RMK A01 T03130161  RH  040%=      5-min Rain = 0
KMC5 262101Z 15020KT 31/16 A3009 RMK A01 T03130162  RH  040%=      5-min Rain = 0
KMC5 262102Z 15018KT 31/16 A3009 RMK A01 T03130162  RH  040%=      5-min Rain = 0
KMC5 262103Z 15019KT 31/16 A3009 RMK A01 T03140162  RH  040%=      5-min Rain = 0
KMC5 262104Z 17014KT 31/17 A301 RMK A01 T03140167  RH  041%=      5-min Rain = 0
KMC5 262105Z 18015KT 32/17 A3009 RMK A01 T03160166  RH  040%=      5-min Rain = 0
KMC5 262106Z 18017KT 32/16 A3009 RMK A01 T03170159  RH  039%=      5-min Rain = 0
KMC5 262107Z 17017G22KT 32/16 A3009 RMK A01 T03160163  RH  040%=      5-min Rain = 0
KMC5 262108Z 16020KT 32/16 A3009 RMK A01 T03160160  RH  039%=      5-min Rain = 0
KMC5 262109Z 17020KT 32/16 A3009 RMK A01 T03150156  RH  038%=      5-min Rain = 0
KMC5 262110Z 16017KT 31/16 A3009 RMK A01 T03130157  RH  039%=      5-min Rain = 0
KMC5 262111Z 16019KT 31/16 A3009 RMK A01 T03130162  RH  040%=      5-min Rain = 0
KMC5 262112Z 16018KT 31/16 A3009 RMK A01 T03140160  RH  039%=      5-min Rain = 0
KMC5 262113Z 16014KT 31/17 A3009 RMK A01 T03140168  RH  041%=      5-min Rain = 0
KMC5 262114Z 16018KT 32/16 A3009 RMK A01 T03150164  RH  040%=      5-min Rain = 0
KMC5 262115Z 16019G24KT 32/16 A3009 RMK A01 T03150160  RH  039%=      5-min Rain = 0
KMC5 262116Z 15019G26KT 31/16 A3009 RMK A01 T03140160  RH  039%=      5-min Rain = 0
KMC5 262117Z 16018G25KT 31/16 A3009 RMK A01 T03140162  RH  040%=      5-min Rain = 0
KMC5 262118Z 17021KT 32/16 A3009 RMK A01 T03150160  RH  039%=      5-min Rain = 0
KMC5 262119Z 17017KT 32/16 A3009 RMK A01 T03150158  RH  039%=      5-min Rain = 0
KMC5 262120Z 17016G22KT 32/16 A3009 RMK A01 T03150158  RH  039%=      5-min Rain = 0
KMC5 262121Z 16017KT 32/16 A3009 RMK A01 T03150158  RH  039%=      5-min Rain = 0
KMC5 262122Z 16020KT 31/16 A3009 RMK A01 T03140155  RH  038%=      5-min Rain = 0
KMC5 262123Z 15018KT 31/16 A3009 RMK A01 T03130157  RH  039%=      5-min Rain = 0
KMC5 262124Z 16018KT 31/16 A3009 RMK A01 T03130159  RH  040%=      5-min Rain = 0
KMC5 262125Z 18017KT 31/16 A3009 RMK A01 T03130158  RH  039%=      5-min Rain = 0
KMC5 262126Z 17018KT 31/16 A3009 RMK A01 T03140162  RH  040%=      5-min Rain = 0
KMC5 262127Z 17020KT 31/16 A3009 RMK A01 T03140158  RH  039%=      5-min Rain = 0
KMC5 262128Z 16018KT 31/16 A3009 RMK A01 T03130159  RH  039%=      5-min Rain = 0
KMC5 262129Z 16018KT 31/16 A3009 RMK A01 T03130157  RH  039%=      5-min Rain = 0
KMC5 262130Z 16016KT 31/16 A3009 RMK A01 T03140162  RH  040%=      5-min Rain = 0
KMC5 262131Z 15020KT 32/16 A3009 RMK A01 T03150157  RH  039%=      5-min Rain = 0
KMC5 262132Z 15016KT 31/16 A3009 RMK A01 T03140158  RH  039%=      5-min Rain = 0
KMC5 262133Z 15015G20KT 31/16 A3009 RMK A01 T03140163  RH  040%=      5-min Rain = 0
KMC5 262134Z 15018G23KT 32/16 A3009 RMK A01 T03150162  RH  040%=      5-min Rain = 0
KMC5 262135Z 14023KT 32/16 A3009 RMK A01 T03150160  RH  039%=      5-min Rain = 0
KMC5 262136Z 15019KT 31/16 A3009 RMK A01 T03140161  RH  040%=      5-min Rain = 0
KMC5 262137Z 16021KT 31/16 A3009 RMK A01 T03130159  RH  039%=      5-min Rain = 0
KMC5 262138Z 16018KT 31/16 A3009 RMK A01 T03130160  RH  040%=      5-min Rain = 0
KMC5 262139Z 16015KT 31/16 A3009 RMK A01 T03130161  RH  040%=      5-min Rain = 0
KMC5 262140Z 16014KT 31/17 A3009 RMK A01 T03130167  RH  042%=      5-min Rain = 0
KMC5 262141Z 18018KT 32/16 A3009 RMK A01 T03150163  RH  040%=      5-min Rain = 0
KMC5 262142Z 17019KT 32/16 A3009 RMK A01 T03150162  RH  040%=      5-min Rain = 0
KMC5 262143Z 16020KT 32/16 A3009 RMK A01 T03150156  RH  038%=      5-min Rain = 0
KMC5 262144Z 16018KT 31/16 A3008 RMK A01 T03140157  RH  039%=      5-min Rain = 0
KMC5 262145Z 16018G27KT 31/16 A3008 RMK A01 T03140159  RH  039%=      5-min Rain = 0
KMC5 262146Z 17020KT 31/16 A3008 RMK A01 T03140156  RH  039%=      5-min Rain = 0
KMC5 262147Z 18017G22KT 31/16 A3008 RMK A01 T03140163  RH  040%=      5-min Rain = 0
KMC5 262148Z 18017KT 32/16 A3008 RMK A01 T03150160  RH  039%=      5-min Rain = 0
KMC5 262149Z 17017KT 32/16 A3008 RMK A01 T03150161  RH  040%=      5-min Rain = 0
KMC5 262150Z 15018KT 32/16 A3008 RMK A01 T03150159  RH  039%=      5-min Rain = 0
KMC5 262151Z 15017KT 31/16 A3008 RMK A01 T03140158  RH  039%=      5-min Rain = 0
KMC5 262152Z 15019G25KT 31/16 A3008 RMK A01 T03140156  RH  038%=      5-min Rain = 0
KMC5 262153Z 16021G26KT 31/15 A3008 RMK A01 T03140150  RH  037%=      5-min Rain = 0
KMC5 262154Z 16024KT 31/15 A3008 RMK A01 T03140149  RH  037%=      5-min Rain = 0
KMC5 262155Z 17022KT 31/15 A3008 RMK A01 T03140150  RH  037%=      5-min Rain = 0
KMC5 262156Z 17021KT 31/15 A3008 RMK A01 T03130149  RH  037%=      5-min Rain = 0
KMC5 262157Z 17019KT 31/15 A3008 RMK A01 T03130153  RH  038%=      5-min Rain = 0
KMC5 262158Z 16020KT 31/15 A3008 RMK A01 T03130154  RH  038%=      5-min Rain = 0
KMC5 262159Z 15015KT 31/16 A3008 RMK A01 T03130159  RH  039%=      5-min Rain = 0
KMC5 262200Z 16018KT 32/15 A3008 RMK A01 T03150154  RH  038%=      5-min Rain = 0
KMC5 262201Z 16021KT 31/15 A3008 RMK A01 T03140151  RH  037%=      5-min Rain = 0
KMC5 262202Z 16020KT 31/15 A3008 RMK A01 T03140151  RH  037%=      5-min Rain = 0
KMC5 262203Z 16019KT 31/15 A3008 RMK A01 T03130153  RH  038%=      5-min Rain = 0
KMC5 262204Z 16019KT 31/15 A3008 RMK A01 T03130153  RH  038%=      5-min Rain = 0
KMC5 262205Z 16019KT 31/15 A3008 RMK A01 T03130150  RH  037%=      5-min Rain = 0
KMC5 262206Z 17016KT 31/15 A3008 RMK A01 T03130153  RH  038%=      5-min Rain = 0
KMC5 262207Z 16016KT 31/16 A3008 RMK A01 T03130158  RH  039%=      5-min Rain = 0
KMC5 262208Z 15018KT 31/16 A3008 RMK A01 T03140157  RH  039%=      5-min Rain = 0
KMC5 262209Z 16019KT 31/15 A3008 RMK A01 T03140152  RH  038%=      5-min Rain = 0
KMC5 262210Z 16017KT 31/16 A3008 RMK A01 T03140158  RH  039%=      5-min Rain = 0
KMC5 262211Z 15018G23KT 31/16 A3008 RMK A01 T03140155  RH  038%=      5-min Rain = 0
KMC5 262212Z 16019KT 31/15 A3008 RMK A01 T03140153  RH  038%=      5-min Rain = 0
KMC5 262213Z 16019KT 31/15 A3008 RMK A01 T03140152  RH  038%=      5-min Rain = 0
KMC5 262214Z 15018KT 31/15 A3008 RMK A01 T03130151  RH  038%=      5-min Rain = 0
KMC5 262215Z 16018KT 31/15 A3008 RMK A01 T03140150  RH  037%=      5-min Rain = 0
KMC5 262216Z 16014KT 31/15 A3007 RMK A01 T03130152  RH  038%=      5-min Rain = 0
KMC5 262217Z 16018KT 31/15 A3007 RMK A01 T03140154  RH  038%=      5-min Rain = 0
KMC5 262218Z 15017G23KT 31/16 A3007 RMK A01 T03140155  RH  038%=      5-min Rain = 0
KMC5 262219Z 15021KT 31/15 A3007 RMK A01 T03140149  RH  037%=      5-min Rain = 0
KMC5 262220Z 16020G25KT 31/15 A3007 RMK A01 T03140148  RH  037%=      5-min Rain = 0
KMC5 262221Z 16016KT 31/15 A3007 RMK A01 T03130152  RH  038%=      5-min Rain = 0
KMC5 262222Z 15018KT 31/16 A3007 RMK A01 T03130156  RH  039%=      5-min Rain = 0
KMC5 262223Z 15020KT 31/15 A3007 RMK A01 T03140150  RH  037%=      5-min Rain = 0
KMC5 262224Z 15019KT 31/15 A3007 RMK A01 T03140148  RH  037%=      5-min Rain = 0
KMC5 262225Z 16018KT 31/15 A3007 RMK A01 T03130149  RH  037%=      5-min Rain = 0
KMC5 262226Z 16018KT 31/15 A3007 RMK A01 T03130150  RH  037%=      5-min Rain = 0
KMC5 262227Z 16017KT 31/15 A3007 RMK A01 T03130151  RH  037%=      5-min Rain = 0
KMC5 262228Z 17020G25KT 31/15 A3007 RMK A01 T03140148  RH  037%=      5-min Rain = 0
KMC5 262229Z 16016KT 31/15 A3007 RMK A01 T03140150  RH  037%=      5-min Rain = 0
KMC5 262230Z 17016KT 31/15 A3007 RMK A01 T03140152  RH  038%=      5-min Rain = 0
KMC5 262231Z 18020KT 31/15 A3007 RMK A01 T03140151  RH  037%=      5-min Rain = 0
KMC5 262232Z 17018KT 32/15 A3007 RMK A01 T03150147  RH  036%=      5-min Rain = 0
KMC5 262233Z 16017KT 31/15 A3007 RMK A01 T03140149  RH  037%=      5-min Rain = 0
KMC5 262234Z 18016KT 31/15 A3007 RMK A01 T03140150  RH  037%=      5-min Rain = 0
KMC5 262235Z 18021KT 31/15 A3007 RMK A01 T03140147  RH  036%=      5-min Rain = 0
KMC5 262236Z 18019KT 31/15 A3007 RMK A01 T03140148  RH  037%=      5-min Rain = 0
KMC5 262237Z 18023KT 31/15 A3007 RMK A01 T03130146  RH  036%=      5-min Rain = 0
KMC5 262238Z 16020KT 31/15 A3007 RMK A01 T03130148  RH  037%=      5-min Rain = 0
KMC5 262239Z 15019KT 31/15 A3007 RMK A01 T03130150  RH  037%=      5-min Rain = 0
KMC5 262240Z 17015KT 31/16 A3007 RMK A01 T03130156  RH  039%=      5-min Rain = 0
KMC5 262241Z 15018KT 31/15 A3007 RMK A01 T03130154  RH  038%=      5-min Rain = 0
KMC5 262242Z 16020KT 31/15 A3007 RMK A01 T03140154  RH  038%=      5-min Rain = 0
KMC5 262243Z 16020KT 31/15 A3007 RMK A01 T03130154  RH  038%=      5-min Rain = 0
KMC5 262244Z 17019KT 31/15 A3007 RMK A01 T03130152  RH  038%=      5-min Rain = 0
KMC5 262245Z 17019G24KT 31/15 A3007 RMK A01 T03120148  RH  037%=      5-min Rain = 0
KMC5 262246Z 16017KT 31/15 A3007 RMK A01 T03120152  RH  038%=      5-min Rain = 0
KMC5 262247Z 17015KT 31/15 A3007 RMK A01 T03130153  RH  038%=      5-min Rain = 0
KMC5 262248Z 17017KT 31/16 A3007 RMK A01 T03130155  RH  039%=      5-min Rain = 0
KMC5 262249Z 17019KT 31/16 A3007 RMK A01 T03130159  RH  040%=      5-min Rain = 0
KMC5 262250Z 17018KT 31/16 A3007 RMK A01 T03130157  RH  039%=      5-min Rain = 0
KMC5 262251Z 16017KT 31/16 A3007 RMK A01 T03120162  RH  040%=      5-min Rain = 0
KMC5 262252Z 16016G22KT 31/16 A3007 RMK A01 T03120160  RH  040%=      5-min Rain = 0
KMC5 262253Z 15017G22KT 31/16 A3007 RMK A01 T03120162  RH  041%=      5-min Rain = 0
KMC5 262254Z 15017KT 31/16 A3007 RMK A01 T03120158  RH  039%=      5-min Rain = 0
KMC5 262255Z 16017KT 31/16 A3007 RMK A01 T03120160  RH  040%=      5-min Rain = 0
KMC5 262256Z 16017G23KT 31/16 A3007 RMK A01 T03120159  RH  040%=      5-min Rain = 0
KMC5 262257Z 15019KT 31/16 A3007 RMK A01 T03120160  RH  040%=      5-min Rain = 0
KMC5 262258Z 16018KT 31/16 A3007 RMK A01 T03120159  RH  040%=      5-min Rain = 0
KMC5 262259Z 16019KT 31/16 A3008 RMK A01 T03120158  RH  040%=      5-min Rain = 0
KMC5 262300Z 16015G22KT 31/16 A3008 RMK A01 T03110162  RH  041%=      5-min Rain = 0
KMC5 262301Z 16018KT 31/16 A3008 RMK A01 T03110162  RH  041%=      5-min Rain = 0
KMC5 262302Z 15018G23KT 31/16 A3008 RMK A01 T03120163  RH  041%=      5-min Rain = 0
KMC5 262303Z 16019KT 31/16 A3007 RMK A01 T03110158  RH  040%=      5-min Rain = 0
KMC5 262304Z 15020KT 31/16 A3007 RMK A01 T03110158  RH  040%=      5-min Rain = 0
KMC5 262305Z 15017KT 31/16 A3008 RMK A01 T03100157  RH  040%=      5-min Rain = 0
KMC5 262306Z 15020G25KT 31/16 A3008 RMK A01 T03100156  RH  039%=      5-min Rain = 0
KMC5 262307Z 14022KT 31/16 A3007 RMK A01 T03100155  RH  039%=      5-min Rain = 0
KMC5 262308Z 15019KT 31/16 A3007 RMK A01 T03100155  RH  039%=      5-min Rain = 0
KMC5 262309Z 16016KT 31/16 A3008 RMK A01 T03100160  RH  041%=      5-min Rain = 0
KMC5 262310Z 15017KT 31/16 A3007 RMK A01 T03100157  RH  040%=      5-min Rain = 0
KMC5 262311Z 15015KT 31/16 A3007 RMK A01 T03100160  RH  040%=      5-min Rain = 0
KMC5 262312Z 17016KT 31/16 A3007 RMK A01 T03100161  RH  041%=      5-min Rain = 0
KMC5 262313Z 16016G21KT 31/16 A3007 RMK A01 T03110162  RH  041%=      5-min Rain = 0
KMC5 262314Z 16018KT 31/16 A3007 RMK A01 T03110159  RH  040%=      5-min Rain = 0
KMC5 262315Z 17020G25KT 31/16 A3007 RMK A01 T03110158  RH  039%=      5-min Rain = 0
KMC5 262316Z 17017KT 31/16 A3007 RMK A01 T03110159  RH  040%=      5-min Rain = 0
KMC5 262317Z 17017KT 31/16 A3007 RMK A01 T03100159  RH  040%=      5-min Rain = 0
KMC5 262318Z 16016KT 31/16 A3007 RMK A01 T03100162  RH  041%=      5-min Rain = 0
KMC5 262319Z 16017KT 31/16 A3007 RMK A01 T03100160  RH  040%=      5-min Rain = 0
KMC5 262320Z 16021KT 31/16 A3007 RMK A01 T03100157  RH  040%=      5-min Rain = 0
KMC5 262321Z 16019KT 31/16 A3007 RMK A01 T03100158  RH  040%=      5-min Rain = 0
KMC5 262322Z 16016G21KT 31/16 A3007 RMK A01 T03090159  RH  040%=      5-min Rain = 0
KMC5 262323Z 15019KT 31/16 A3007 RMK A01 T03090160  RH  041%=      5-min Rain = 0
KMC5 262324Z 16021KT 31/16 A3007 RMK A01 T03090155  RH  039%=      5-min Rain = 0
KMC5 262325Z 16019KT 31/16 A3007 RMK A01 T03090158  RH  040%=      5-min Rain = 0
KMC5 262326Z 16020KT 31/16 A3007 RMK A01 T03080160  RH  041%=      5-min Rain = 0
KMC5 262327Z 16016G21KT 31/16 A3007 RMK A01 T03090162  RH  041%=      5-min Rain = 0
KMC5 262328Z 15013KT 31/17 A3007 RMK A01 T03080168  RH  043%=      5-min Rain = 0
KMC5 262329Z 16014KT 31/17 A3007 RMK A01 T03090165  RH  042%=      5-min Rain = 0
KMC5 262330Z 16011KT 31/17 A3007 RMK A01 T03090170  RH  043%=      5-min Rain = 0
KMC5 262331Z 16013KT 31/17 A3007 RMK A01 T03100169  RH  043%=      5-min Rain = 0
KMC5 262332Z 16014KT 31/17 A3007 RMK A01 T03100168  RH  043%=      5-min Rain = 0
KMC5 262333Z 16019KT 31/17 A3007 RMK A01 T03100167  RH  042%=      5-min Rain = 0
KMC5 262334Z 16019KT 31/16 A3007 RMK A01 T03100160  RH  041%=      5-min Rain = 0
KMC5 262335Z 15018KT 31/16 A3007 RMK A01 T03080161  RH  041%=      5-min Rain = 0
KMC5 262336Z 15016G21KT 31/16 A3007 RMK A01 T03070162  RH  042%=      5-min Rain = 0
KMC5 262337Z 15016KT 31/17 A3007 RMK A01 T03070167  RH  043%=      5-min Rain = 0
KMC5 262338Z 16019KT 31/16 A3007 RMK A01 T03060163  RH  042%=      5-min Rain = 0
KMC5 262339Z 15017G22KT 31/17 A3007 RMK A01 T03060165  RH  043%=      5-min Rain = 0
KMC5 262340Z 15021KT 31/16 A3007 RMK A01 T03060161  RH  042%=      5-min Rain = 0
KMC5 262341Z 16021KT 31/16 A3007 RMK A01 T03060161  RH  042%=      5-min Rain = 0
KMC5 262342Z 15018G24KT 31/16 A3007 RMK A01 T03060161  RH  042%=      5-min Rain = 0
KMC5 262343Z 16018KT 31/17 A3007 RMK A01 T03060165  RH  043%=      5-min Rain = 0
KMC5 262344Z 16017KT 31/16 A3007 RMK A01 T03050164  RH  043%=      5-min Rain = 0
KMC5 262345Z 16020KT 30/16 A3007 RMK A01 T03030163  RH  043%=      5-min Rain = 0
KMC5 262346Z 16018KT 30/16 A3007 RMK A01 T03010162  RH  043%=      5-min Rain = 0
KMC5 262347Z 15017KT 30/16 A3007 RMK A01 T02990162  RH  044%=      5-min Rain = 0
KMC5 262348Z 15014KT 30/17 A3007 RMK A01 T02980165  RH  045%=      5-min Rain = 0
KMC5 262349Z 15014KT 30/17 A3007 RMK A01 T02970165  RH  045%=      5-min Rain = 0
KMC5 262350Z 16015G20KT 30/17 A3007 RMK A01 T02960165  RH  045%=      5-min Rain = 0
KMC5 262351Z 15015KT 30/16 A3007 RMK A01 T02960164  RH  045%=      5-min Rain = 0
KMC5 262352Z 15016KT 30/16 A3007 RMK A01 T02950164  RH  045%=      5-min Rain = 0
KMC5 262353Z 15016KT 30/16 A3007 RMK A01 T02950164  RH  045%=      5-min Rain = 0
KMC5 262354Z 15015KT 30/16 A3007 RMK A01 T02950164  RH  045%=      5-min Rain = 0
KMC5 262355Z 15016G21KT 30/16 A3007 RMK A01 T02950164  RH  045%=      5-min Rain = 0
KMC5 262356Z 16019G24KT 30/17 A3007 RMK A01 T02950165  RH  045%=      5-min Rain = 0
KMC5 262357Z 15019KT 30/16 A3007 RMK A01 T02950163  RH  045%=      5-min Rain = 0
KMC5 262358Z 16016KT 30/16 A3007 RMK A01 T02950164  RH  045%=      5-min Rain = 0
KMC5 262359Z 16016KT 30/17 A3007 RMK A01 T02950167  RH  046%=      5-min Rain = 0
KMC5 270000Z 15016KT 30/17 A3007 RMK A01 T02950166  RH  046%=      5-min Rain = 0
KMC5 270001Z 15015KT 30/17 A3007 RMK A01 T02950167  RH  046%=      5-min Rain = 0
KMC5 270002Z 16013KT 29/17 A3007 RMK A01 T02940167  RH  046%=      5-min Rain = 0
KMC5 270003Z 16019KT 29/16 A3007 RMK A01 T02940164  RH  045%=      5-min Rain = 0
KMC5 270004Z 16017KT 29/16 A3007 RMK A01 T02940163  RH  045%=      5-min Rain = 0
KMC5 270005Z 16016KT 29/17 A3007 RMK A01 T02940165  RH  046%=      5-min Rain = 0
KMC5 270006Z 16015KT 29/17 A3007 RMK A01 T02940166  RH  046%=      5-min Rain = 0
KMC5 270007Z 16014KT 29/17 A3007 RMK A01 T02940167  RH  046%=      5-min Rain = 0
KMC5 270008Z 17017KT 29/17 A3007 RMK A01 T02940166  RH  046%=      5-min Rain = 0
KMC5 270009Z 16015KT 29/17 A3007 RMK A01 T02930166  RH  046%=      5-min Rain = 0
KMC5 270010Z 16013KT 29/17 A3007 RMK A01 T02930168  RH  047%=      5-min Rain = 0
KMC5 270011Z 16015KT 29/17 A3007 RMK A01 T02920168  RH  047%=      5-min Rain = 0
KMC5 270012Z 15016KT 29/17 A3007 RMK A01 T02920169  RH  047%=      5-min Rain = 0
KMC5 270013Z 15017KT 29/17 A3007 RMK A01 T02920167  RH  047%=      5-min Rain = 0
KMC5 270014Z 16015KT 29/17 A3007 RMK A01 T02920168  RH  047%=      5-min Rain = 0
KMC5 270015Z 16015KT 29/17 A3007 RMK A01 T02910167  RH  047%=      5-min Rain = 0
KMC5 270016Z 16012KT 29/17 A3007 RMK A01 T02910169  RH  048%=      5-min Rain = 0
KMC5 270017Z 16011KT 29/17 A3007 RMK A01 T02900171  RH  048%=      5-min Rain = 0
KMC5 270018Z 16014KT 29/17 A3007 RMK A01 T02900169  RH  048%=      5-min Rain = 0
KMC5 270019Z 16014KT 29/17 A3007 RMK A01 T02900169  RH  048%=      5-min Rain = 0
KMC5 270020Z 16014KT 29/17 A3007 RMK A01 T02900169  RH  048%=      5-min Rain = 0
KMC5 270021Z 16012KT 29/17 A3007 RMK A01 T02900169  RH  048%=      5-min Rain = 0
KMC5 270022Z 15013KT 29/17 A3007 RMK A01 T02900170  RH  048%=      5-min Rain = 0
KMC5 270023Z 16012KT 29/17 A3007 RMK A01 T02890171  RH  049%=      5-min Rain = 0
KMC5 270024Z 16012KT 29/17 A3008 RMK A01 T02890170  RH  048%=      5-min Rain = 0
KMC5 270025Z 15016KT 29/17 A3008 RMK A01 T02890169  RH  048%=      5-min Rain = 0
KMC5 270026Z 15017KT 29/17 A3008 RMK A01 T02890167  RH  048%=      5-min Rain = 0
KMC5 270027Z 15016KT 29/17 A3008 RMK A01 T02890167  RH  048%=      5-min Rain = 0
KMC5 270028Z 15015KT 29/17 A3008 RMK A01 T02890168  RH  048%=      5-min Rain = 0
KMC5 270029Z 15012KT 29/17 A3008 RMK A01 T02890170  RH  049%=      5-min Rain = 0
KMC5 270030Z 16014KT 29/17 A3008 RMK A01 T02880170  RH  049%=      5-min Rain = 0
KMC5 270031Z 15013KT 29/17 A3008 RMK A01 T02870169  RH  049%=      5-min Rain = 0
KMC5 270032Z 15014KT 29/17 A3008 RMK A01 T02870170  RH  049%=      5-min Rain = 0
KMC5 270033Z 15011KT 29/17 A3008 RMK A01 T02870169  RH  049%=      5-min Rain = 0
KMC5 270034Z 16013KT 29/17 A3008 RMK A01 T02870171  RH  050%=      5-min Rain = 0
KMC5 270035Z 15012KT 29/17 A3008 RMK A01 T02870170  RH  049%=      5-min Rain = 0
KMC5 270036Z 15013KT 29/17 A3009 RMK A01 T02870171  RH  049%=      5-min Rain = 0
KMC5 270037Z 16012KT 29/17 A3009 RMK A01 T02860172  RH  050%=      5-min Rain = 0
KMC5 270038Z 16011G16KT 29/17 A3009 RMK A01 T02850173  RH  050%=      5-min Rain = 0
KMC5 270039Z 17013KT 29/17 A3009 RMK A01 T02850172  RH  051%=      5-min Rain = 0
KMC5 270040Z 16014KT 29/17 A3009 RMK A01 T02850170  RH  050%=      5-min Rain = 0
KMC5 270041Z 16013KT 29/17 A3009 RMK A01 T02860171  RH  050%=      5-min Rain = 0
KMC5 270042Z 16013KT 29/17 A3009 RMK A01 T02860171  RH  050%=      5-min Rain = 0
KMC5 270043Z 16015KT 29/17 A3009 RMK A01 T02850172  RH  050%=      5-min Rain = 0
KMC5 270044Z 16016G22KT 29/17 A3009 RMK A01 T02850171  RH  050%=      5-min Rain = 0
KMC5 270045Z 16019KT 28/17 A3009 RMK A01 T02840168  RH  050%=      5-min Rain = 0
KMC5 270046Z 16016KT 28/17 A3009 RMK A01 T02840169  RH  049%=      5-min Rain = 0
KMC5 270047Z 16013KT 29/17 A3009 RMK A01 T02850169  RH  050%=      5-min Rain = 0
KMC5 270048Z 16015KT 28/17 A3009 RMK A01 T02840170  RH  050%=      5-min Rain = 0
KMC5 270049Z 16014KT 28/17 A3009 RMK A01 T02840169  RH  050%=      5-min Rain = 0
KMC5 270050Z 16012KT 28/17 A3009 RMK A01 T02840171  RH  050%=      5-min Rain = 0
KMC5 270051Z 16016KT 28/17 A3009 RMK A01 T02820169  RH  050%=      5-min Rain = 0
KMC5 270052Z 16016KT 28/17 A3009 RMK A01 T02830170  RH  050%=      5-min Rain = 0
KMC5 270053Z 16015KT 28/17 A3009 RMK A01 T02830170  RH  050%=      5-min Rain = 0
KMC5 270054Z 16014KT 28/17 A3009 RMK A01 T02830170  RH  050%=      5-min Rain = 0
KMC5 270055Z 17013KT 28/17 A3009 RMK A01 T02820170  RH  051%=      5-min Rain = 0
KMC5 270056Z 16011KT 28/17 A3009 RMK A01 T02820171  RH  051%=      5-min Rain = 0
KMC5 270057Z 16012KT 28/17 A3009 RMK A01 T02810172  RH  052%=      5-min Rain = 0
KMC5 270058Z 16010KT 28/17 A301 RMK A01 T02800173  RH  052%=      5-min Rain = 0
KMC5 270059Z 16012KT 28/17 A301 RMK A01 T02790172  RH  052%=      5-min Rain = 0
KMC5 270100Z 16011KT 28/17 A301 RMK A01 T02790173  RH  053%=      5-min Rain = 0
KMC5 270101Z 16012KT 28/17 A301 RMK A01 T02780173  RH  053%=      5-min Rain = 0
KMC5 270102Z 16011KT 28/17 A301 RMK A01 T02770172  RH  053%=      5-min Rain = 0
KMC5 270103Z 16010KT 28/17 A301 RMK A01 T02770174  RH  053%=      5-min Rain = 0
KMC5 270104Z 16011KT 28/17 A301 RMK A01 T02770174  RH  054%=      5-min Rain = 0
KMC5 270105Z 16010KT 28/17 A301 RMK A01 T02760174  RH  054%=      5-min Rain = 0
KMC5 270106Z 16011KT 28/17 A301 RMK A01 T02760174  RH  054%=      5-min Rain = 0
KMC5 270107Z 16010KT 28/18 A301 RMK A01 T02750175  RH  054%=      5-min Rain = 0
KMC5 270108Z 16010KT 28/17 A301 RMK A01 T02750174  RH  054%=      5-min Rain = 0
KMC5 270109Z 16012KT 28/17 A301 RMK A01 T02750174  RH  054%=      5-min Rain = 0
KMC5 270110Z 16009KT 27/17 A301 RMK A01 T02740174  RH  054%=      5-min Rain = 0
KMC5 270111Z 17010KT 27/18 A301 RMK A01 T02740176  RH  055%=      5-min Rain = 0
KMC5 270112Z 16010G15KT 27/18 A301 RMK A01 T02730175  RH  055%=      5-min Rain = 0
KMC5 270113Z 16012KT 27/17 A301 RMK A01 T02720173  RH  055%=      5-min Rain = 0
KMC5 270114Z 17012KT 27/17 A301 RMK A01 T02730174  RH  055%=      5-min Rain = 0
KMC5 270115Z 16011KT 27/17 A301 RMK A01 T02730174  RH  054%=      5-min Rain = 0
KMC5 270116Z 16010KT 27/17 A301 RMK A01 T02730174  RH  055%=      5-min Rain = 0
KMC5 270117Z 16010KT 27/18 A301 RMK A01 T02730175  RH  055%=      5-min Rain = 0
KMC5 270118Z 16012KT 27/18 A301 RMK A01 T02720175  RH  055%=      5-min Rain = 0
KMC5 270119Z 17012KT 27/17 A301 RMK A01 T02710174  RH  055%=      5-min Rain = 0
KMC5 270120Z 16012KT 27/17 A3011 RMK A01 T02720174  RH  055%=      5-min Rain = 0
KMC5 270121Z 17011KT 27/17 A3011 RMK A01 T02710174  RH  055%=      5-min Rain = 0
KMC5 270122Z 16013KT 27/17 A3011 RMK A01 T02710173  RH  055%=      5-min Rain = 0
KMC5 270123Z 16011KT 27/17 A3011 RMK A01 T02710173  RH  055%=      5-min Rain = 0
KMC5 270124Z 16012KT 27/17 A3011 RMK A01 T02710173  RH  055%=      5-min Rain = 0
KMC5 270125Z 16013KT 27/17 A3011 RMK A01 T02710173  RH  055%=      5-min Rain = 0
KMC5 270126Z 16012KT 27/17 A3011 RMK A01 T02710173  RH  055%=      5-min Rain = 0
KMC5 270127Z 16012KT 27/17 A3011 RMK A01 T02710173  RH  055%=      5-min Rain = 0
KMC5 270128Z 16012KT 27/17 A3011 RMK A01 T02710173  RH  055%=      5-min Rain = 0
KMC5 270129Z 16010KT 27/17 A3011 RMK A01 T02700174  RH  056%=      5-min Rain = 0
KMC5 270130Z 17012KT 27/17 A3011 RMK A01 T02690173  RH  056%=      5-min Rain = 0
KMC5 270131Z 17011KT 27/17 A3011 RMK A01 T02690173  RH  055%=      5-min Rain = 0
KMC5 270132Z 17010KT 27/17 A3011 RMK A01 T02690174  RH  056%=      5-min Rain = 0
KMC5 270133Z 17010KT 27/17 A3011 RMK A01 T02690174  RH  056%=      5-min Rain = 0
KMC5 270134Z 16010KT 27/17 A3011 RMK A01 T02680174  RH  056%=      5-min Rain = 0
KMC5 270135Z 17009KT 27/18 A3011 RMK A01 T02680175  RH  057%=      5-min Rain = 0
KMC5 270136Z 17009KT 27/18 A3011 RMK A01 T02670176  RH  057%=      5-min Rain = 0
KMC5 270137Z 17009KT 27/17 A3011 RMK A01 T02650174  RH  057%=      5-min Rain = 0
KMC5 270138Z 17009KT 27/18 A3011 RMK A01 T02650175  RH  058%=      5-min Rain = 0
KMC5 270139Z 17009KT 26/18 A3012 RMK A01 T02640176  RH  058%=      5-min Rain = 0
KMC5 270140Z 17010KT 26/18 A3012 RMK A01 T02640175  RH  058%=      5-min Rain = 0
KMC5 270141Z 17010KT 26/18 A3012 RMK A01 T02640175  RH  058%=      5-min Rain = 0
KMC5 270142Z 17010KT 26/18 A3012 RMK A01 T02640175  RH  058%=      5-min Rain = 0
KMC5 270143Z 17009KT 26/18 A3012 RMK A01 T02640176  RH  058%=      5-min Rain = 0
KMC5 270144Z 17010KT 26/18 A3012 RMK A01 T02630177  RH  059%=      5-min Rain = 0
KMC5 270145Z 17010KT 26/18 A3012 RMK A01 T02620176  RH  059%=      5-min Rain = 0
KMC5 270146Z 17008KT 26/18 A3012 RMK A01 T02620176  RH  059%=      5-min Rain = 0
KMC5 270147Z 17009KT 26/18 A3012 RMK A01 T02620178  RH  060%=      5-min Rain = 0
KMC5 270148Z 17009KT 26/18 A3012 RMK A01 T02610177  RH  060%=      5-min Rain = 0
KMC5 270149Z 17009KT 26/18 A3012 RMK A01 T02610177  RH  060%=      5-min Rain = 0
KMC5 270150Z 17008KT 26/18 A3012 RMK A01 T02600177  RH  060%=      5-min Rain = 0
KMC5 270151Z 17009KT 26/18 A3012 RMK A01 T02600177  RH  060%=      5-min Rain = 0
KMC5 270152Z 17009KT 26/18 A3012 RMK A01 T02600177  RH  060%=      5-min Rain = 0
KMC5 270153Z 17009KT 26/18 A3012 RMK A01 T02600178  RH  061%=      5-min Rain = 0
KMC5 270154Z 17009KT 26/18 A3012 RMK A01 T02590178  RH  061%=      5-min Rain = 0
KMC5 270155Z 17009KT 26/18 A3012 RMK A01 T02590177  RH  061%=      5-min Rain = 0
KMC5 270156Z 16007KT 26/18 A3012 RMK A01 T02590178  RH  061%=      5-min Rain = 0
KMC5 270157Z 17007KT 26/18 A3012 RMK A01 T02590178  RH  061%=      5-min Rain = 0
KMC5 270158Z 17007KT 26/18 A3012 RMK A01 T02580178  RH  061%=      5-min Rain = 0
KMC5 270159Z 17008KT 26/18 A3012 RMK A01 T02580178  RH  062%=      5-min Rain = 0
KMC5 270200Z 17008KT 26/18 A3012 RMK A01 T02570178  RH  062%=      5-min Rain = 0
KMC5 270201Z 17007KT 26/18 A3012 RMK A01 T02570178  RH  062%=      5-min Rain = 0
KMC5 270202Z 16008KT 26/18 A3012 RMK A01 T02570179  RH  062%=      5-min Rain = 0
KMC5 270203Z 16009KT 26/18 A3012 RMK A01 T02560178  RH  062%=      5-min Rain = 0
KMC5 270204Z 16008KT 26/18 A3012 RMK A01 T02570178  RH  062%=      5-min Rain = 0
KMC5 270205Z 16007KT 26/18 A3012 RMK A01 T02570178  RH  062%=      5-min Rain = 0
KMC5 270206Z 16008KT 26/18 A3012 RMK A01 T02570179  RH  062%=      5-min Rain = 0
KMC5 270207Z 16009KT 26/18 A3012 RMK A01 T02560178  RH  062%=      5-min Rain = 0
KMC5 270208Z 16008KT 26/18 A3012 RMK A01 T02560178  RH  062%=      5-min Rain = 0
KMC5 270209Z 16007KT 26/18 A3012 RMK A01 T02560178  RH  062%=      5-min Rain = 0
KMC5 270210Z 16007KT 26/18 A3013 RMK A01 T02550179  RH  063%=      5-min Rain = 0
KMC5 270211Z 17007KT 25/18 A3013 RMK A01 T02540179  RH  063%=      5-min Rain = 0
KMC5 270212Z 17007KT 25/18 A3013 RMK A01 T02530179  RH  064%=      5-min Rain = 0
KMC5 270213Z 17007KT 25/18 A3013 RMK A01 T02520179  RH  064%=      5-min Rain = 0
KMC5 270214Z 17007KT 25/18 A3013 RMK A01 T02520179  RH  064%=      5-min Rain = 0
KMC5 270215Z 16008KT 25/18 A3013 RMK A01 T02520179  RH  064%=      5-min Rain = 0
KMC5 270216Z 17008KT 25/18 A3013 RMK A01 T02520179  RH  064%=      5-min Rain = 0
KMC5 270217Z 17008KT 25/18 A3013 RMK A01 T02520178  RH  064%=      5-min Rain = 0
KMC5 270218Z 17008KT 25/18 A3013 RMK A01 T02530178  RH  063%=      5-min Rain = 0
KMC5 270219Z 17007KT 25/18 A3013 RMK A01 T02540179  RH  063%=      5-min Rain = 0
KMC5 270220Z 17007KT 25/18 A3013 RMK A01 T02540179  RH  063%=      5-min Rain = 0
KMC5 270221Z 17007KT 25/18 A3013 RMK A01 T02530180  RH  064%=      5-min Rain = 0
KMC5 270222Z 17007KT 25/18 A3013 RMK A01 T02520179  RH  064%=      5-min Rain = 0
KMC5 270223Z 17007KT 25/18 A3013 RMK A01 T02510180  RH  064%=      5-min Rain = 0
KMC5 270224Z 17008KT 25/18 A3013 RMK A01 T02500180  RH  065%=      5-min Rain = 0
KMC5 270225Z 17008KT 25/18 A3013 RMK A01 T02500180  RH  065%=      5-min Rain = 0
KMC5 270226Z 17008KT 25/18 A3013 RMK A01 T02500180  RH  065%=      5-min Rain = 0
KMC5 270227Z 17008KT 25/18 A3013 RMK A01 T02500180  RH  065%=      5-min Rain = 0
KMC5 270228Z 16008KT 25/18 A3013 RMK A01 T02500180  RH  065%=      5-min Rain = 0
KMC5 270229Z 17008KT 25/18 A3013 RMK A01 T02490180  RH  065%=      5-min Rain = 0
KMC5 270230Z 17008KT 25/18 A3013 RMK A01 T02490180  RH  066%=      5-min Rain = 0
KMC5 270231Z 17008KT 25/18 A3013 RMK A01 T02480180  RH  066%=      5-min Rain = 0
KMC5 270232Z 17008KT 25/18 A3014 RMK A01 T02480180  RH  066%=      5-min Rain = 0
KMC5 270233Z 17008KT 25/18 A3014 RMK A01 T02480180  RH  066%=      5-min Rain = 0
KMC5 270234Z 17008KT 25/18 A3014 RMK A01 T02470180  RH  066%=      5-min Rain = 0
KMC5 270235Z 17008KT 25/18 A3014 RMK A01 T02470180  RH  066%=      5-min Rain = 0
KMC5 270236Z 17007KT 25/18 A3014 RMK A01 T02470180  RH  066%=      5-min Rain = 0
KMC5 270237Z 17008KT 25/18 A3014 RMK A01 T02470180  RH  066%=      5-min Rain = 0
KMC5 270238Z 17008KT 25/18 A3014 RMK A01 T02470180  RH  066%=      5-min Rain = 0
KMC5 270239Z 17008KT 25/18 A3014 RMK A01 T02460180  RH  067%=      5-min Rain = 0
KMC5 270240Z 17008KT 25/18 A3014 RMK A01 T02460180  RH  067%=      5-min Rain = 0
KMC5 270241Z 17008KT 25/18 A3014 RMK A01 T02460180  RH  067%=      5-min Rain = 0
KMC5 270242Z 17008KT 25/18 A3014 RMK A01 T02460180  RH  067%=      5-min Rain = 0
KMC5 270243Z 17009KT 25/18 A3014 RMK A01 T02450180  RH  067%=      5-min Rain = 0
KMC5 270244Z 17009KT 25/18 A3014 RMK A01 T02460180  RH  067%=      5-min Rain = 0
KMC5 270245Z 17010KT 25/18 A3014 RMK A01 T02450180  RH  067%=      5-min Rain = 0
KMC5 270246Z 17010KT 25/18 A3014 RMK A01 T02450180  RH  067%=      5-min Rain = 0
KMC5 270247Z 17010KT 25/18 A3014 RMK A01 T02450179  RH  067%=      5-min Rain = 0
KMC5 270248Z 17010KT 25/18 A3014 RMK A01 T02450180  RH  067%=      5-min Rain = 0
KMC5 270249Z 17011KT 25/18 A3014 RMK A01 T02450180  RH  067%=      5-min Rain = 0
KMC5 270250Z 17012KT 25/18 A3014 RMK A01 T02450178  RH  066%=      5-min Rain = 0
KMC5 270251Z 16014KT 25/18 A3013 RMK A01 T02460178  RH  066%=      5-min Rain = 0
KMC5 270252Z 16013KT 25/18 A3013 RMK A01 T02480177  RH  065%=      5-min Rain = 0
KMC5 270253Z 16013KT 25/18 A3013 RMK A01 T02490178  RH  065%=      5-min Rain = 0
KMC5 270254Z 16014KT 25/18 A3013 RMK A01 T02490178  RH  065%=      5-min Rain = 0
KMC5 270255Z 16013KT 25/18 A3013 RMK A01 T02490177  RH  065%=      5-min Rain = 0
KMC5 270256Z 16013KT 25/18 A3013 RMK A01 T02490177  RH  064%=      5-min Rain = 0
KMC5 270257Z 16013KT 25/18 A3013 RMK A01 T02490178  RH  065%=      5-min Rain = 0
KMC5 270258Z 16013KT 25/18 A3013 RMK A01 T02480177  RH  065%=      5-min Rain = 0
KMC5 270259Z 15012KT 25/18 A3013 RMK A01 T02470177  RH  065%=      5-min Rain = 0
KMC5 270300Z 16012KT 25/18 A3013 RMK A01 T02470177  RH  065%=      5-min Rain = 0
KMC5 270301Z 16012KT 25/18 A3013 RMK A01 T02470177  RH  065%=      5-min Rain = 0
KMC5 270302Z 16011KT 25/18 A3013 RMK A01 T02470176  RH  065%=      5-min Rain = 0
KMC5 270303Z 16014KT 25/18 A3013 RMK A01 T02470176  RH  065%=      5-min Rain = 0
KMC5 270304Z 16013KT 25/18 A3013 RMK A01 T02470175  RH  064%=      5-min Rain = 0
KMC5 270305Z 16013KT 25/18 A3013 RMK A01 T02470175  RH  064%=      5-min Rain = 0
KMC5 270306Z 16014KT 25/18 A3013 RMK A01 T02470175  RH  064%=      5-min Rain = 0
KMC5 270307Z 16015KT 25/17 A3013 RMK A01 T02470174  RH  064%=      5-min Rain = 0
KMC5 270308Z 16016KT 25/17 A3013 RMK A01 T02470173  RH  063%=      5-min Rain = 0
KMC5 270309Z 16017KT 25/17 A3013 RMK A01 T02480172  RH  062%=      5-min Rain = 0
KMC5 270310Z 16016KT 25/17 A3013 RMK A01 T02490172  RH  062%=      5-min Rain = 0
KMC5 270311Z 16017KT 25/17 A3012 RMK A01 T02490172  RH  062%=      5-min Rain = 0
KMC5 270312Z 16018KT 25/17 A3013 RMK A01 T02500171  RH  062%=      5-min Rain = 0
KMC5 270313Z 16018KT 25/17 A3013 RMK A01 T02500171  RH  062%=      5-min Rain = 0
KMC5 270314Z 16017KT 25/17 A3013 RMK A01 T02490171  RH  062%=      5-min Rain = 0
KMC5 270315Z 16019KT 25/17 A3013 RMK A01 T02490171  RH  062%=      5-min Rain = 0
KMC5 270316Z 16018KT 25/17 A3013 RMK A01 T02490171  RH  062%=      5-min Rain = 0
KMC5 270317Z 15019KT 25/17 A3012 RMK A01 T02490171  RH  062%=      5-min Rain = 0
KMC5 270318Z 15019KT 25/17 A3012 RMK A01 T02490171  RH  062%=      5-min Rain = 0
KMC5 270319Z 15018G24KT 25/17 A3012 RMK A01 T02480171  RH  062%=      5-min Rain = 0
KMC5 270320Z 15019G24KT 25/17 A3012 RMK A01 T02480171  RH  062%=      5-min Rain = 0
KMC5 270321Z 15015KT 25/17 A3012 RMK A01 T02480172  RH  062%=      5-min Rain = 0
KMC5 270322Z 15016G22KT 25/17 A3012 RMK A01 T02470172  RH  063%=      5-min Rain = 0
KMC5 270323Z 15017KT 25/17 A3012 RMK A01 T02460171  RH  063%=      5-min Rain = 0
KMC5 270324Z 15017KT 25/17 A3012 RMK A01 T02450171  RH  063%=      5-min Rain = 0
KMC5 270325Z 15020KT 25/17 A3012 RMK A01 T02450170  RH  063%=      5-min Rain = 0
KMC5 270326Z 15020KT 25/17 A3012 RMK A01 T02460170  RH  063%=      5-min Rain = 0
KMC5 270327Z 15019KT 25/17 A3012 RMK A01 T02460170  RH  063%=      5-min Rain = 0
KMC5 270328Z 15019KT 25/17 A3012 RMK A01 T02460170  RH  063%=      5-min Rain = 0
KMC5 270329Z 15020KT 25/17 A3012 RMK A01 T02460170  RH  063%=      5-min Rain = 0
KMC5 270330Z 15016G22KT 25/17 A3012 RMK A01 T02460170  RH  063%=      5-min Rain = 0
KMC5 270331Z 15018G23KT 25/17 A3012 RMK A01 T02460171  RH  063%=      5-min Rain = 0
KMC5 270332Z 15016KT 25/17 A3012 RMK A01 T02460171  RH  063%=      5-min Rain = 0
KMC5 270333Z 15018G24KT 25/17 A3013 RMK A01 T02460171  RH  063%=      5-min Rain = 0
KMC5 270334Z 15020KT 25/17 A3013 RMK A01 T02460170  RH  063%=      5-min Rain = 0
KMC5 270335Z 16019KT 25/17 A3013 RMK A01 T02460170  RH  063%=      5-min Rain = 0
KMC5 270336Z 15016G21KT 25/17 A3013 RMK A01 T02460170  RH  063%=      5-min Rain = 0
KMC5 270337Z 16014KT 25/17 A3014 RMK A01 T02460171  RH  063%=      5-min Rain = 0
KMC5 270338Z 15013KT 25/17 A3014 RMK A01 T02450171  RH  064%=      5-min Rain = 0
KMC5 270339Z 16018KT 24/17 A3014 RMK A01 T02440171  RH  064%=      5-min Rain = 0
KMC5 270340Z 16015KT 24/17 A3015 RMK A01 T02440171  RH  064%=      5-min Rain = 0
KMC5 270341Z 16012KT 24/17 A3015 RMK A01 T02440172  RH  064%=      5-min Rain = 0
KMC5 270342Z 16014KT 24/17 A3015 RMK A01 T02430171  RH  064%=      5-min Rain = 0
KMC5 270343Z 16016KT 24/17 A3015 RMK A01 T02430171  RH  064%=      5-min Rain = 0
KMC5 270344Z 16016KT 24/17 A3015 RMK A01 T02430171  RH  064%=      5-min Rain = 0
KMC5 270345Z 16014KT 24/17 A3015 RMK A01 T02430171  RH  064%=      5-min Rain = 0
KMC5 270346Z 17016KT 24/17 A3015 RMK A01 T02430171  RH  064%=      5-min Rain = 0
KMC5 270347Z 17016KT 24/17 A3015 RMK A01 T02440171  RH  064%=      5-min Rain = 0
KMC5 270348Z 16017KT 24/17 A3015 RMK A01 T02440171  RH  064%=      5-min Rain = 0
KMC5 270349Z 17017G22KT 24/17 A3015 RMK A01 T02440171  RH  064%=      5-min Rain = 0
KMC5 270350Z 16013KT 24/17 A3015 RMK A01 T02430172  RH  064%=      5-min Rain = 0
KMC5 270351Z 16018KT 24/17 A3015 RMK A01 T02420172  RH  065%=      5-min Rain = 0
KMC5 270352Z 16018KT 24/17 A3015 RMK A01 T02410171  RH  065%=      5-min Rain = 0
KMC5 270353Z 16018KT 24/17 A3015 RMK A01 T02410172  RH  065%=      5-min Rain = 0
KMC5 270354Z 16016KT 24/17 A3015 RMK A01 T02410172  RH  065%=      5-min Rain = 0
KMC5 270355Z 16016G22KT 24/17 A3015 RMK A01 T02410172  RH  066%=      5-min Rain = 0
KMC5 270356Z 16018KT 24/17 A3015 RMK A01 T02400172  RH  066%=      5-min Rain = 0
KMC5 270357Z 17020G25KT 24/17 A3015 RMK A01 T02400172  RH  065%=      5-min Rain = 0
KMC5 270358Z 17016KT 24/17 A3015 RMK A01 T02410172  RH  065%=      5-min Rain = 0
KMC5 270359Z 16016KT 24/17 A3015 RMK A01 T02400172  RH  066%=      5-min Rain = 0
KMC5 270400Z 16018G24KT 24/17 A3015 RMK A01 T02400172  RH  066%=      5-min Rain = 0
KMC5 270401Z 16018G23KT 24/17 A3015 RMK A01 T02390172  RH  066%=      5-min Rain = 0
KMC5 270402Z 17018KT 24/17 A3015 RMK A01 T02400172  RH  066%=      5-min Rain = 0
KMC5 270403Z 17015KT 24/17 A3015 RMK A01 T02400172  RH  066%=      5-min Rain = 0
KMC5 270404Z 16017KT 24/17 A3015 RMK A01 T02400173  RH  066%=      5-min Rain = 0
KMC5 270405Z 16016G22KT 24/17 A3015 RMK A01 T02400173  RH  066%=      5-min Rain = 0
KMC5 270406Z 17018KT 24/17 A3015 RMK A01 T02390173  RH  066%=      5-min Rain = 0
KMC5 270407Z 17018KT 24/17 A3015 RMK A01 T02400173  RH  066%=      5-min Rain = 0
KMC5 270408Z 16017KT 24/17 A3015 RMK A01 T02400173  RH  066%=      5-min Rain = 0
KMC5 270409Z 16018G23KT 24/17 A3015 RMK A01 T02400173  RH  066%=      5-min Rain = 0
KMC5 270410Z 17019G24KT 24/17 A3015 RMK A01 T02400173  RH  066%=      5-min Rain = 0
KMC5 270411Z 17018KT 24/17 A3015 RMK A01 T02410173  RH  066%=      5-min Rain = 0
KMC5 270412Z 17016KT 24/17 A3015 RMK A01 T02410173  RH  066%=      5-min Rain = 0
KMC5 270413Z 17021G27KT 24/17 A3015 RMK A01 T02400173  RH  066%=      5-min Rain = 0
KMC5 270414Z 17017KT 24/17 A3015 RMK A01 T02400173  RH  066%=      5-min Rain = 0
KMC5 270415Z 16017G22KT 24/17 A3015 RMK A01 T02400174  RH  066%=      5-min Rain = 0
KMC5 270416Z 16016KT 24/17 A3015 RMK A01 T02400174  RH  066%=      5-min Rain = 0
KMC5 270417Z 17018KT 24/17 A3015 RMK A01 T02400174  RH  067%=      5-min Rain = 0
KMC5 270418Z 16018KT 24/17 A3015 RMK A01 T02400174  RH  067%=      5-min Rain = 0
KMC5 270419Z 17016KT 24/17 A3015 RMK A01 T02390174  RH  067%=      5-min Rain = 0
KMC5 270420Z 16019KT 24/17 A3015 RMK A01 T02400174  RH  067%=      5-min Rain = 0
KMC5 270421Z 16019KT 24/17 A3015 RMK A01 T02390174  RH  067%=      5-min Rain = 0
KMC5 270422Z 17020KT 24/17 A3015 RMK A01 T02390173  RH  066%=      5-min Rain = 0
KMC5 270423Z 16018G25KT 24/17 A3015 RMK A01 T02400174  RH  066%=      5-min Rain = 0
KMC5 270424Z 17020KT 24/17 A3015 RMK A01 T02410174  RH  066%=      5-min Rain = 0
KMC5 270425Z 16018KT 24/17 A3015 RMK A01 T02410174  RH  066%=      5-min Rain = 0
KMC5 270426Z 16018KT 24/17 A3015 RMK A01 T02410174  RH  066%=      5-min Rain = 0
KMC5 270427Z 16020KT 24/17 A3015 RMK A01 T02400174  RH  067%=      5-min Rain = 0
KMC5 270428Z 17020KT 24/17 A3015 RMK A01 T02400174  RH  066%=      5-min Rain = 0
KMC5 270429Z 17018KT 24/17 A3015 RMK A01 T02400174  RH  066%=      5-min Rain = 0
KMC5 270430Z 17017G22KT 24/17 A3015 RMK A01 T02400174  RH  066%=      5-min Rain = 0
KMC5 270431Z 16019KT 24/17 A3015 RMK A01 T02400174  RH  067%=      5-min Rain = 0
KMC5 270432Z 16019KT 24/17 A3015 RMK A01 T02400174  RH  067%=      5-min Rain = 0
KMC5 270433Z 17019KT 24/17 A3015 RMK A01 T02400174  RH  066%=      5-min Rain = 0
KMC5 270434Z 17017KT 24/17 A3015 RMK A01 T02400174  RH  066%=      5-min Rain = 0
KMC5 270435Z 16018KT 24/17 A3015 RMK A01 T02400174  RH  067%=      5-min Rain = 0
KMC5 270436Z 17018KT 24/17 A3015 RMK A01 T02400174  RH  067%=      5-min Rain = 0
KMC5 270437Z 16016KT 24/17 A3015 RMK A01 T02400174  RH  067%=      5-min Rain = 0
KMC5 270438Z 17014KT 24/18 A3015 RMK A01 T02400175  RH  067%=      5-min Rain = 0
KMC5 270439Z 17017KT 24/17 A3015 RMK A01 T02390174  RH  067%=      5-min Rain = 0
KMC5 270440Z 17018KT 24/17 A3015 RMK A01 T02390174  RH  067%=      5-min Rain = 0
KMC5 270441Z 17016KT 24/17 A3015 RMK A01 T02390174  RH  067%=      5-min Rain = 0
KMC5 270442Z 17017KT 24/17 A3015 RMK A01 T02390174  RH  067%=      5-min Rain = 0
KMC5 270443Z 17018KT 24/17 A3015 RMK A01 T02390174  RH  067%=      5-min Rain = 0
KMC5 270444Z 17016G21KT 24/17 A3016 RMK A01 T02390174  RH  067%=      5-min Rain = 0
KMC5 270445Z 17017KT 24/17 A3016 RMK A01 T02390174  RH  067%=      5-min Rain = 0
KMC5 270446Z 17016KT 24/17 A3016 RMK A01 T02390174  RH  067%=      5-min Rain = 0
KMC5 270447Z 17017KT 24/17 A3016 RMK A01 T02390174  RH  067%=      5-min Rain = 0
KMC5 270448Z 17014KT 24/17 A3016 RMK A01 T02390174  RH  067%=      5-min Rain = 0
KMC5 270449Z 17017KT 24/17 A3016 RMK A01 T02390174  RH  067%=      5-min Rain = 0
KMC5 270450Z 17015G21KT 24/17 A3016 RMK A01 T02390174  RH  067%=      5-min Rain = 0
KMC5 270451Z 17015KT 24/17 A3016 RMK A01 T02390174  RH  067%=      5-min Rain = 0
KMC5 270452Z 17016KT 24/17 A3016 RMK A01 T02390174  RH  067%=      5-min Rain = 0
KMC5 270453Z 17015KT 24/17 A3016 RMK A01 T02390174  RH  067%=      5-min Rain = 0
KMC5 270454Z 17016KT 24/17 A3016 RMK A01 T02390174  RH  067%=      5-min Rain = 0
KMC5 270455Z 17018KT 24/17 A3016 RMK A01 T02390174  RH  067%=      5-min Rain = 0
KMC5 270456Z 17016KT 24/17 A3016 RMK A01 T02390174  RH  067%=      5-min Rain = 0
KMC5 270457Z 17015KT 24/17 A3016 RMK A01 T02390173  RH  067%=      5-min Rain = 0
KMC5 270458Z 17016KT 24/17 A3016 RMK A01 T02390174  RH  067%=      5-min Rain = 0
KMC5 270459Z 16015KT 24/17 A3016 RMK A01 T02390174  RH  067%=      5-min Rain = 0

Page generated in 0.0759 seconds.